<?xml version="1.0" encoding="UTF-8"?>
<gpx schemaLocation="http://www.topografix.com/GPX/1/1 http://www.topografix.com/GPX/1/1/gpx.xsd" version="1.1" creator="Enregistré par Geo Tracker pour Android de Ilya Bogdanovich" xmlns="http://www.topografix.com/GPX/1/1" xmlns:xsi="http://www.w3.org/2001/XMLSchema-instance" xsi:schemaLocation="http://www.topografix.com/GPX/1/1 http://www.topografix.com/GPX/1/1/gpx.xsd http://www.garmin.com/xmlschemas/GpxExtensions/v3 http://www.garmin.com/xmlschemas/GpxExtensionsv3.xsd http://www.garmin.com/xmlschemas/TrackPointExtension/v1 http://www.garmin.com/xmlschemas/TrackPointExtensionv1.xsd http://www.garmin.com/xmlschemas/PowerExtension/v1 http://www.garmin.com/xmlschemas/PowerExtensionv1.xsd http://www.topografix.com/GPX/gpx_style/0/2 http://www.topografix.com/GPX/gpx_style/0/2/gpx_style.xsd" xmlns:gpxtpx="http://www.garmin.com/xmlschemas/TrackPointExtension/v1" xmlns:gpxx="http://www.garmin.com/xmlschemas/GpxExtensions/v3" xmlns:gpxpx="http://www.garmin.com/xmlschemas/PowerExtension/v1" xmlns:gpx_style="http://www.topografix.com/GPX/gpx_style/0/2">
  <metadata>
    <name>Neung-beuvron-25-11-27</name>
    <author>
      <name>gpx.studio</name>
      <link href="https://gpx.studio"/>
    </author>
    <link href="https://play.google.com/store/apps/details?id=com.ilyabogdanovich.geotracker"/>
    <time>2025-11-27T07:58:17.000Z</time>
  </metadata>
  <wpt lat="47.51322893" lon="1.77496557">
    <ele>142.38</ele>
    <time>2025-11-27T09:06:15.000Z</time>
    <name>Arrêt de ~11 min</name>
    <desc>Altitude: 142 m
Durée depuis le départ: 01:07:57
Distance depuis le départ: 4,54 km</desc>
  </wpt>
  <wpt lat="47.5267934" lon="1.78952289">
    <ele>148.04</ele>
    <time>2025-11-27T10:04:32.000Z</time>
    <name>Arrêt de ~2 min</name>
    <desc>Altitude: 148 m
Durée depuis le départ: 02:06:14
Distance depuis le départ: 8,24 km</desc>
  </wpt>
  <trk>
    <name>Neung-beuvron-25-11-27</name>
    <src>Enregistré par Geo Tracker pour Android de Ilya Bogdanovich</src>
    <link href="https://play.google.com/store/apps/details?id=com.ilyabogdanovich.geotracker"/>
    <trkseg>
      <trkpt lat="47.53285433990865" lon="1.8060184285808702">
        <ele>93.84447175371575</ele>
        <time>2025-11-27T10:29:05.779Z</time>
      </trkpt>
      <trkpt lat="47.53287427" lon="1.80609893">
        <ele>141.74</ele>
        <time>2025-11-27T10:29:10.956Z</time>
      </trkpt>
      <trkpt lat="47.53290658" lon="1.80622721">
        <ele>138.37</ele>
        <time>2025-11-27T10:29:42.956Z</time>
      </trkpt>
      <trkpt lat="47.5329341" lon="1.80635973">
        <ele>139.49</ele>
        <time>2025-11-27T10:29:50.956Z</time>
      </trkpt>
      <trkpt lat="47.53297047" lon="1.80649464">
        <ele>140.68</ele>
        <time>2025-11-27T10:29:56.956Z</time>
      </trkpt>
      <trkpt lat="47.53295519" lon="1.80663334">
        <ele>142.35</ele>
        <time>2025-11-27T10:30:05.956Z</time>
      </trkpt>
      <trkpt lat="47.53286529" lon="1.80667369">
        <ele>142.14</ele>
        <time>2025-11-27T10:30:15.956Z</time>
      </trkpt>
      <trkpt lat="47.53278355" lon="1.8067388">
        <ele>142.41</ele>
        <time>2025-11-27T10:30:24.956Z</time>
      </trkpt>
      <trkpt lat="47.53270062" lon="1.80679738">
        <ele>140.52</ele>
        <time>2025-11-27T10:30:33.956Z</time>
      </trkpt>
      <trkpt lat="47.53262478" lon="1.80672113">
        <ele>139.28</ele>
        <time>2025-11-27T10:30:43.956Z</time>
      </trkpt>
      <trkpt lat="47.53260678" lon="1.80658139">
        <ele>136.1</ele>
        <time>2025-11-27T10:30:53.956Z</time>
      </trkpt>
      <trkpt lat="47.53253365" lon="1.80649659">
        <ele>136.29</ele>
        <time>2025-11-27T10:31:04.956Z</time>
      </trkpt>
      <trkpt lat="47.53246316" lon="1.80658379">
        <ele>134.27</ele>
        <time>2025-11-27T10:31:14.956Z</time>
      </trkpt>
      <trkpt lat="47.53240812" lon="1.80670962">
        <ele>134.63</ele>
        <time>2025-11-27T10:31:24.956Z</time>
      </trkpt>
      <trkpt lat="47.53234361" lon="1.80680601">
        <ele>131.06</ele>
        <time>2025-11-27T10:31:32.956Z</time>
      </trkpt>
      <trkpt lat="47.53227531" lon="1.80689667">
        <ele>132.49</ele>
        <time>2025-11-27T10:31:40.956Z</time>
      </trkpt>
      <trkpt lat="47.53220146" lon="1.80698671">
        <ele>134.77</ele>
        <time>2025-11-27T10:31:48.956Z</time>
      </trkpt>
      <trkpt lat="47.53212432" lon="1.80706641">
        <ele>138.51</ele>
        <time>2025-11-27T10:31:56.956Z</time>
      </trkpt>
      <trkpt lat="47.53203654" lon="1.80709643">
        <ele>138</ele>
        <time>2025-11-27T10:32:04.956Z</time>
      </trkpt>
      <trkpt lat="47.53194394" lon="1.80712621">
        <ele>141.15</ele>
        <time>2025-11-27T10:32:13.956Z</time>
      </trkpt>
      <trkpt lat="47.53185419" lon="1.80719261">
        <ele>142.91</ele>
        <time>2025-11-27T10:32:22.956Z</time>
      </trkpt>
      <trkpt lat="47.53177055" lon="1.80725736">
        <ele>144.26</ele>
        <time>2025-11-27T10:32:31.956Z</time>
      </trkpt>
      <trkpt lat="47.53168538" lon="1.80731051">
        <ele>143.93</ele>
        <time>2025-11-27T10:32:42.956Z</time>
      </trkpt>
      <trkpt lat="47.53159531" lon="1.80735426">
        <ele>145.6</ele>
        <time>2025-11-27T10:32:52.956Z</time>
      </trkpt>
      <trkpt lat="47.53150725" lon="1.80739779">
        <ele>145.08</ele>
        <time>2025-11-27T10:33:03.956Z</time>
      </trkpt>
      <trkpt lat="47.53141009" lon="1.80742214">
        <ele>146.73</ele>
        <time>2025-11-27T10:33:14.956Z</time>
      </trkpt>
      <trkpt lat="47.53132248" lon="1.80747313">
        <ele>146.32</ele>
        <time>2025-11-27T10:33:23.956Z</time>
      </trkpt>
      <trkpt lat="47.53123345" lon="1.80742351">
        <ele>145.2</ele>
        <time>2025-11-27T10:33:34.956Z</time>
      </trkpt>
      <trkpt lat="47.53120646" lon="1.80728858">
        <ele>143.94</ele>
        <time>2025-11-27T10:33:43.956Z</time>
      </trkpt>
      <trkpt lat="47.53118064" lon="1.80715988">
        <ele>143.76</ele>
        <time>2025-11-27T10:33:51.956Z</time>
      </trkpt>
      <trkpt lat="47.53115412" lon="1.80702645">
        <ele>143.94</ele>
        <time>2025-11-27T10:33:58.956Z</time>
      </trkpt>
      <trkpt lat="47.53111106" lon="1.8068956">
        <ele>145.35</ele>
        <time>2025-11-27T10:34:06.956Z</time>
      </trkpt>
      <trkpt lat="47.53107671" lon="1.80676659">
        <ele>144.12</ele>
        <time>2025-11-27T10:34:16.956Z</time>
      </trkpt>
      <trkpt lat="47.53102673" lon="1.80664468">
        <ele>143.55</ele>
        <time>2025-11-27T10:34:23.956Z</time>
      </trkpt>
      <trkpt lat="47.53098264" lon="1.80652043">
        <ele>142.99</ele>
        <time>2025-11-27T10:34:30.956Z</time>
      </trkpt>
      <trkpt lat="47.53089616" lon="1.80644443">
        <ele>139.42</ele>
        <time>2025-11-27T10:34:40.956Z</time>
      </trkpt>
      <trkpt lat="47.53080917" lon="1.80639106">
        <ele>139.21</ele>
        <time>2025-11-27T10:34:48.956Z</time>
      </trkpt>
      <trkpt lat="47.53071766" lon="1.80634686">
        <ele>136.98</ele>
        <time>2025-11-27T10:34:56.956Z</time>
      </trkpt>
      <trkpt lat="47.53061902" lon="1.80631927">
        <ele>136.62</ele>
        <time>2025-11-27T10:35:05.956Z</time>
      </trkpt>
      <trkpt lat="47.53052472" lon="1.80628616">
        <ele>135.19</ele>
        <time>2025-11-27T10:35:14.956Z</time>
      </trkpt>
      <trkpt lat="47.53042558" lon="1.80626209">
        <ele>135.46</ele>
        <time>2025-11-27T10:35:23.956Z</time>
      </trkpt>
      <trkpt lat="47.53033669" lon="1.80621296">
        <ele>137.52</ele>
        <time>2025-11-27T10:35:30.956Z</time>
      </trkpt>
      <trkpt lat="47.53023755" lon="1.8061814">
        <ele>136.22</ele>
        <time>2025-11-27T10:35:39.956Z</time>
      </trkpt>
      <trkpt lat="47.53014374" lon="1.80615146">
        <ele>136.04</ele>
        <time>2025-11-27T10:35:46.956Z</time>
      </trkpt>
      <trkpt lat="47.53005264" lon="1.80612562">
        <ele>136.96</ele>
        <time>2025-11-27T10:35:54.956Z</time>
      </trkpt>
      <trkpt lat="47.52996001" lon="1.80610027">
        <ele>137.92</ele>
        <time>2025-11-27T10:36:02.956Z</time>
      </trkpt>
      <trkpt lat="47.52986291" lon="1.80610068">
        <ele>137.65</ele>
        <time>2025-11-27T10:36:10.956Z</time>
      </trkpt>
      <trkpt lat="47.52977147" lon="1.80604824">
        <ele>139.03</ele>
        <time>2025-11-27T10:36:19.956Z</time>
      </trkpt>
      <trkpt lat="47.52968397" lon="1.80599242">
        <ele>138.57</ele>
        <time>2025-11-27T10:36:27.956Z</time>
      </trkpt>
      <trkpt lat="47.52958882" lon="1.80596885">
        <ele>138.19</ele>
        <time>2025-11-27T10:36:36.956Z</time>
      </trkpt>
      <trkpt lat="47.529499" lon="1.80591678">
        <ele>139.52</ele>
        <time>2025-11-27T10:36:45.956Z</time>
      </trkpt>
      <trkpt lat="47.5294146" lon="1.8058372">
        <ele>138.51</ele>
        <time>2025-11-27T10:36:54.956Z</time>
      </trkpt>
      <trkpt lat="47.52933817" lon="1.80574565">
        <ele>138.73</ele>
        <time>2025-11-27T10:37:02.956Z</time>
      </trkpt>
      <trkpt lat="47.52925592" lon="1.80566447">
        <ele>136.39</ele>
        <time>2025-11-27T10:37:11.956Z</time>
      </trkpt>
      <trkpt lat="47.52919605" lon="1.80555935">
        <ele>136.67</ele>
        <time>2025-11-27T10:37:19.956Z</time>
      </trkpt>
      <trkpt lat="47.5291114" lon="1.8054864">
        <ele>137.86</ele>
        <time>2025-11-27T10:37:27.956Z</time>
      </trkpt>
      <trkpt lat="47.52902024" lon="1.80545939">
        <ele>139.46</ele>
        <time>2025-11-27T10:37:34.956Z</time>
      </trkpt>
      <trkpt lat="47.5289235" lon="1.80544008">
        <ele>140.78</ele>
        <time>2025-11-27T10:37:42.956Z</time>
      </trkpt>
      <trkpt lat="47.52882886" lon="1.80542507">
        <ele>141.53</ele>
        <time>2025-11-27T10:37:50.956Z</time>
      </trkpt>
      <trkpt lat="47.52872923" lon="1.80541248">
        <ele>139.98</ele>
        <time>2025-11-27T10:37:59.956Z</time>
      </trkpt>
      <trkpt lat="47.52863477" lon="1.80539963">
        <ele>140.96</ele>
        <time>2025-11-27T10:38:07.956Z</time>
      </trkpt>
      <trkpt lat="47.5285425" lon="1.80537348">
        <ele>140.74</ele>
        <time>2025-11-27T10:38:15.956Z</time>
      </trkpt>
      <trkpt lat="47.52845356" lon="1.80534467">
        <ele>141.48</ele>
        <time>2025-11-27T10:38:22.956Z</time>
      </trkpt>
      <trkpt lat="47.52835908" lon="1.80529356">
        <ele>140.84</ele>
        <time>2025-11-27T10:38:30.956Z</time>
      </trkpt>
      <trkpt lat="47.52826288" lon="1.80525568">
        <ele>142.17</ele>
        <time>2025-11-27T10:38:38.956Z</time>
      </trkpt>
      <trkpt lat="47.5281683" lon="1.80521575">
        <ele>143.17</ele>
        <time>2025-11-27T10:38:46.956Z</time>
      </trkpt>
      <trkpt lat="47.52807386" lon="1.80516338">
        <ele>140.17</ele>
        <time>2025-11-27T10:38:55.956Z</time>
      </trkpt>
      <trkpt lat="47.52798661" lon="1.80512447">
        <ele>139.44</ele>
        <time>2025-11-27T10:39:03.956Z</time>
      </trkpt>
      <trkpt lat="47.52789109" lon="1.80510242">
        <ele>138.4</ele>
        <time>2025-11-27T10:39:11.956Z</time>
      </trkpt>
      <trkpt lat="47.5278003" lon="1.80509363">
        <ele>139.06</ele>
        <time>2025-11-27T10:39:18.956Z</time>
      </trkpt>
      <trkpt lat="47.52770457" lon="1.80508678">
        <ele>139.93</ele>
        <time>2025-11-27T10:39:26.956Z</time>
      </trkpt>
      <trkpt lat="47.52761379" lon="1.80508143">
        <ele>141.69</ele>
        <time>2025-11-27T10:39:33.956Z</time>
      </trkpt>
      <trkpt lat="47.52751701" lon="1.80506971">
        <ele>143.14</ele>
        <time>2025-11-27T10:39:41.956Z</time>
      </trkpt>
      <trkpt lat="47.52742743" lon="1.80509026">
        <ele>143.72</ele>
        <time>2025-11-27T10:39:48.956Z</time>
      </trkpt>
      <trkpt lat="47.52733806" lon="1.80511689">
        <ele>143.65</ele>
        <time>2025-11-27T10:39:56.956Z</time>
      </trkpt>
      <trkpt lat="47.52724998" lon="1.80514674">
        <ele>144.54</ele>
        <time>2025-11-27T10:40:04.956Z</time>
      </trkpt>
      <trkpt lat="47.52715594" lon="1.80517359">
        <ele>145.04</ele>
        <time>2025-11-27T10:40:12.956Z</time>
      </trkpt>
      <trkpt lat="47.52705776" lon="1.80520667">
        <ele>145.34</ele>
        <time>2025-11-27T10:40:20.956Z</time>
      </trkpt>
      <trkpt lat="47.52696455" lon="1.80522261">
        <ele>145.39</ele>
        <time>2025-11-27T10:40:28.956Z</time>
      </trkpt>
      <trkpt lat="47.52686931" lon="1.80524541">
        <ele>146.6</ele>
        <time>2025-11-27T10:40:36.956Z</time>
      </trkpt>
      <trkpt lat="47.52676939" lon="1.80525902">
        <ele>144.83</ele>
        <time>2025-11-27T10:40:45.956Z</time>
      </trkpt>
      <trkpt lat="47.52667591" lon="1.80527928">
        <ele>146.43</ele>
        <time>2025-11-27T10:40:52.956Z</time>
      </trkpt>
      <trkpt lat="47.52657468" lon="1.80530905">
        <ele>149.21</ele>
        <time>2025-11-27T10:41:00.956Z</time>
      </trkpt>
      <trkpt lat="47.526481" lon="1.80531183">
        <ele>149.03</ele>
        <time>2025-11-27T10:41:08.956Z</time>
      </trkpt>
      <trkpt lat="47.52638517" lon="1.80530429">
        <ele>149.92</ele>
        <time>2025-11-27T10:41:16.956Z</time>
      </trkpt>
      <trkpt lat="47.5262864" lon="1.80528508">
        <ele>152.03</ele>
        <time>2025-11-27T10:41:25.956Z</time>
      </trkpt>
      <trkpt lat="47.52619662" lon="1.80526207">
        <ele>152.49</ele>
        <time>2025-11-27T10:41:32.956Z</time>
      </trkpt>
      <trkpt lat="47.52610562" lon="1.80524286">
        <ele>151.69</ele>
        <time>2025-11-27T10:41:40.956Z</time>
      </trkpt>
      <trkpt lat="47.52601261" lon="1.80525296">
        <ele>153.47</ele>
        <time>2025-11-27T10:41:47.956Z</time>
      </trkpt>
      <trkpt lat="47.52592336" lon="1.80521376">
        <ele>153.26</ele>
        <time>2025-11-27T10:41:55.956Z</time>
      </trkpt>
      <trkpt lat="47.52582316" lon="1.80520669">
        <ele>148.75</ele>
        <time>2025-11-27T10:42:04.956Z</time>
      </trkpt>
      <trkpt lat="47.52573199" lon="1.80519921">
        <ele>150.42</ele>
        <time>2025-11-27T10:42:11.956Z</time>
      </trkpt>
      <trkpt lat="47.52563969" lon="1.80518506">
        <ele>152.89</ele>
        <time>2025-11-27T10:42:18.956Z</time>
      </trkpt>
      <trkpt lat="47.52554846" lon="1.80517391">
        <ele>153.23</ele>
        <time>2025-11-27T10:42:26.956Z</time>
      </trkpt>
      <trkpt lat="47.52545388" lon="1.80514647">
        <ele>153.87</ele>
        <time>2025-11-27T10:42:35.956Z</time>
      </trkpt>
      <trkpt lat="47.52536045" lon="1.80513393">
        <ele>154.99</ele>
        <time>2025-11-27T10:42:43.956Z</time>
      </trkpt>
      <trkpt lat="47.52526778" lon="1.80509487">
        <ele>153.77</ele>
        <time>2025-11-27T10:42:51.956Z</time>
      </trkpt>
      <trkpt lat="47.5251775" lon="1.8050784">
        <ele>152.62</ele>
        <time>2025-11-27T10:42:59.956Z</time>
      </trkpt>
      <trkpt lat="47.52507817" lon="1.805073">
        <ele>154.12</ele>
        <time>2025-11-27T10:43:08.956Z</time>
      </trkpt>
      <trkpt lat="47.52498607" lon="1.80506803">
        <ele>154.49</ele>
        <time>2025-11-27T10:43:16.956Z</time>
      </trkpt>
      <trkpt lat="47.52488795" lon="1.80506186">
        <ele>154.79</ele>
        <time>2025-11-27T10:43:24.956Z</time>
      </trkpt>
      <trkpt lat="47.52479689" lon="1.80506134">
        <ele>158.98</ele>
        <time>2025-11-27T10:43:32.956Z</time>
      </trkpt>
      <trkpt lat="47.52470225" lon="1.80504999">
        <ele>155.65</ele>
        <time>2025-11-27T10:43:40.956Z</time>
      </trkpt>
      <trkpt lat="47.5246085" lon="1.80503746">
        <ele>154.88</ele>
        <time>2025-11-27T10:43:48.956Z</time>
      </trkpt>
      <trkpt lat="47.5245174" lon="1.8050156">
        <ele>153.05</ele>
        <time>2025-11-27T10:43:57.956Z</time>
      </trkpt>
      <trkpt lat="47.52442244" lon="1.80501011">
        <ele>151.68</ele>
        <time>2025-11-27T10:44:05.956Z</time>
      </trkpt>
      <trkpt lat="47.52432754" lon="1.80499123">
        <ele>155.18</ele>
        <time>2025-11-27T10:44:13.956Z</time>
      </trkpt>
      <trkpt lat="47.52423107" lon="1.80498258">
        <ele>157.37</ele>
        <time>2025-11-27T10:44:22.956Z</time>
      </trkpt>
      <trkpt lat="47.52413514" lon="1.80497836">
        <ele>154.68</ele>
        <time>2025-11-27T10:44:31.956Z</time>
      </trkpt>
      <trkpt lat="47.52404507" lon="1.80493024">
        <ele>155.21</ele>
        <time>2025-11-27T10:44:39.956Z</time>
      </trkpt>
      <trkpt lat="47.52396366" lon="1.80484901">
        <ele>153.33</ele>
        <time>2025-11-27T10:44:47.956Z</time>
      </trkpt>
      <trkpt lat="47.5238746" lon="1.8047884">
        <ele>156.35</ele>
        <time>2025-11-27T10:44:55.956Z</time>
      </trkpt>
      <trkpt lat="47.52378599" lon="1.80472841">
        <ele>155.39</ele>
        <time>2025-11-27T10:45:04.956Z</time>
      </trkpt>
      <trkpt lat="47.52369617" lon="1.80469306">
        <ele>152.71</ele>
        <time>2025-11-27T10:45:12.956Z</time>
      </trkpt>
      <trkpt lat="47.52360151" lon="1.80465239">
        <ele>150.53</ele>
        <time>2025-11-27T10:45:20.956Z</time>
      </trkpt>
      <trkpt lat="47.52351515" lon="1.80459867">
        <ele>151.66</ele>
        <time>2025-11-27T10:45:28.956Z</time>
      </trkpt>
      <trkpt lat="47.523431" lon="1.80452963">
        <ele>152.78</ele>
        <time>2025-11-27T10:45:37.956Z</time>
      </trkpt>
      <trkpt lat="47.52333727" lon="1.80447579">
        <ele>151.48</ele>
        <time>2025-11-27T10:45:46.956Z</time>
      </trkpt>
      <trkpt lat="47.52324874" lon="1.80443897">
        <ele>153.5</ele>
        <time>2025-11-27T10:45:53.956Z</time>
      </trkpt>
      <trkpt lat="47.5231554" lon="1.80439299">
        <ele>149.93</ele>
        <time>2025-11-27T10:46:01.956Z</time>
      </trkpt>
      <trkpt lat="47.52306327" lon="1.80435458">
        <ele>152.45</ele>
        <time>2025-11-27T10:46:09.956Z</time>
      </trkpt>
      <trkpt lat="47.52297578" lon="1.80429424">
        <ele>155.06</ele>
        <time>2025-11-27T10:46:17.956Z</time>
      </trkpt>
      <trkpt lat="47.52288346" lon="1.8042492">
        <ele>154.31</ele>
        <time>2025-11-27T10:46:25.956Z</time>
      </trkpt>
      <trkpt lat="47.52279327" lon="1.80419693">
        <ele>154.95</ele>
        <time>2025-11-27T10:46:33.956Z</time>
      </trkpt>
      <trkpt lat="47.52270841" lon="1.80415179">
        <ele>156.82</ele>
        <time>2025-11-27T10:46:41.956Z</time>
      </trkpt>
      <trkpt lat="47.5226165" lon="1.80407674">
        <ele>156.29</ele>
        <time>2025-11-27T10:46:49.956Z</time>
      </trkpt>
      <trkpt lat="47.5225306" lon="1.80401225">
        <ele>155.08</ele>
        <time>2025-11-27T10:46:57.956Z</time>
      </trkpt>
      <trkpt lat="47.5224478" lon="1.80393859">
        <ele>153.5</ele>
        <time>2025-11-27T10:47:06.956Z</time>
      </trkpt>
      <trkpt lat="47.52235818" lon="1.80389634">
        <ele>152.93</ele>
        <time>2025-11-27T10:47:14.956Z</time>
      </trkpt>
      <trkpt lat="47.52227247" lon="1.80384619">
        <ele>151.92</ele>
        <time>2025-11-27T10:47:22.956Z</time>
      </trkpt>
      <trkpt lat="47.5221796" lon="1.80378894">
        <ele>154.91</ele>
        <time>2025-11-27T10:47:30.956Z</time>
      </trkpt>
      <trkpt lat="47.52209607" lon="1.80372929">
        <ele>153.36</ele>
        <time>2025-11-27T10:47:38.956Z</time>
      </trkpt>
      <trkpt lat="47.52200162" lon="1.80368095">
        <ele>152.62</ele>
        <time>2025-11-27T10:47:46.956Z</time>
      </trkpt>
      <trkpt lat="47.52190908" lon="1.80362929">
        <ele>152.51</ele>
        <time>2025-11-27T10:47:55.956Z</time>
      </trkpt>
      <trkpt lat="47.52181481" lon="1.80359645">
        <ele>151.43</ele>
        <time>2025-11-27T10:48:03.956Z</time>
      </trkpt>
      <trkpt lat="47.52172085" lon="1.80355518">
        <ele>154.87</ele>
        <time>2025-11-27T10:48:11.956Z</time>
      </trkpt>
      <trkpt lat="47.52162604" lon="1.80352076">
        <ele>154.82</ele>
        <time>2025-11-27T10:48:20.956Z</time>
      </trkpt>
      <trkpt lat="47.5215398" lon="1.80347814">
        <ele>153</ele>
        <time>2025-11-27T10:48:28.956Z</time>
      </trkpt>
      <trkpt lat="47.52144883" lon="1.80342652">
        <ele>153.84</ele>
        <time>2025-11-27T10:48:36.956Z</time>
      </trkpt>
      <trkpt lat="47.52136507" lon="1.80336928">
        <ele>153.68</ele>
        <time>2025-11-27T10:48:44.956Z</time>
      </trkpt>
      <trkpt lat="47.5212632" lon="1.80330291">
        <ele>154.03</ele>
        <time>2025-11-27T10:48:54.956Z</time>
      </trkpt>
      <trkpt lat="47.52117886" lon="1.80323675">
        <ele>152.51</ele>
        <time>2025-11-27T10:49:03.956Z</time>
      </trkpt>
      <trkpt lat="47.52109318" lon="1.80317955">
        <ele>151.3</ele>
        <time>2025-11-27T10:49:11.956Z</time>
      </trkpt>
      <trkpt lat="47.52100427" lon="1.80313603">
        <ele>154.26</ele>
        <time>2025-11-27T10:49:18.956Z</time>
      </trkpt>
      <trkpt lat="47.5209111" lon="1.80308636">
        <ele>156.23</ele>
        <time>2025-11-27T10:49:26.956Z</time>
      </trkpt>
      <trkpt lat="47.52081932" lon="1.80302476">
        <ele>154.83</ele>
        <time>2025-11-27T10:49:34.956Z</time>
      </trkpt>
      <trkpt lat="47.52072569" lon="1.80297089">
        <ele>156.36</ele>
        <time>2025-11-27T10:49:42.956Z</time>
      </trkpt>
      <trkpt lat="47.52063844" lon="1.80290818">
        <ele>156.27</ele>
        <time>2025-11-27T10:49:51.956Z</time>
      </trkpt>
      <trkpt lat="47.5205472" lon="1.80284621">
        <ele>156.1</ele>
        <time>2025-11-27T10:49:59.956Z</time>
      </trkpt>
      <trkpt lat="47.52046091" lon="1.80278151">
        <ele>156.75</ele>
        <time>2025-11-27T10:50:07.956Z</time>
      </trkpt>
      <trkpt lat="47.52037708" lon="1.80272244">
        <ele>154.7</ele>
        <time>2025-11-27T10:50:15.956Z</time>
      </trkpt>
      <trkpt lat="47.52029384" lon="1.8026602">
        <ele>155</ele>
        <time>2025-11-27T10:50:23.956Z</time>
      </trkpt>
      <trkpt lat="47.52021666" lon="1.80257723">
        <ele>155.03</ele>
        <time>2025-11-27T10:50:31.956Z</time>
      </trkpt>
      <trkpt lat="47.52013532" lon="1.80249908">
        <ele>153.48</ele>
        <time>2025-11-27T10:50:39.956Z</time>
      </trkpt>
      <trkpt lat="47.52006729" lon="1.80240274">
        <ele>150.03</ele>
        <time>2025-11-27T10:50:47.956Z</time>
      </trkpt>
      <trkpt lat="47.51998648" lon="1.80231105">
        <ele>150.67</ele>
        <time>2025-11-27T10:50:55.956Z</time>
      </trkpt>
      <trkpt lat="47.51991941" lon="1.80219932">
        <ele>151.12</ele>
        <time>2025-11-27T10:51:03.956Z</time>
      </trkpt>
      <trkpt lat="47.51984363" lon="1.80210624">
        <ele>152.31</ele>
        <time>2025-11-27T10:51:11.956Z</time>
      </trkpt>
      <trkpt lat="47.51976529" lon="1.80201849">
        <ele>151.22</ele>
        <time>2025-11-27T10:51:19.956Z</time>
      </trkpt>
      <trkpt lat="47.51969244" lon="1.80193487">
        <ele>150.84</ele>
        <time>2025-11-27T10:51:26.956Z</time>
      </trkpt>
      <trkpt lat="47.51962615" lon="1.8018326">
        <ele>151.46</ele>
        <time>2025-11-27T10:51:34.956Z</time>
      </trkpt>
      <trkpt lat="47.51955649" lon="1.80174242">
        <ele>153.12</ele>
        <time>2025-11-27T10:52:32.956Z</time>
      </trkpt>
      <trkpt lat="47.51949757" lon="1.80163047">
        <ele>153.3</ele>
        <time>2025-11-27T10:52:41.956Z</time>
      </trkpt>
      <trkpt lat="47.51944448" lon="1.80152006">
        <ele>152.96</ele>
        <time>2025-11-27T10:52:50.956Z</time>
      </trkpt>
      <trkpt lat="47.51939568" lon="1.80140281">
        <ele>148.74</ele>
        <time>2025-11-27T10:52:58.956Z</time>
      </trkpt>
      <trkpt lat="47.51931638" lon="1.80132074">
        <ele>149.99</ele>
        <time>2025-11-27T10:53:06.956Z</time>
      </trkpt>
      <trkpt lat="47.51923662" lon="1.80122268">
        <ele>150.96</ele>
        <time>2025-11-27T10:53:14.956Z</time>
      </trkpt>
      <trkpt lat="47.51916182" lon="1.8011415">
        <ele>148.43</ele>
        <time>2025-11-27T10:53:21.956Z</time>
      </trkpt>
      <trkpt lat="47.51908556" lon="1.80106589">
        <ele>147.75</ele>
        <time>2025-11-27T10:53:28.956Z</time>
      </trkpt>
      <trkpt lat="47.51899464" lon="1.80100926">
        <ele>146.51</ele>
        <time>2025-11-27T10:53:36.956Z</time>
      </trkpt>
      <trkpt lat="47.51890449" lon="1.80094614">
        <ele>146.61</ele>
        <time>2025-11-27T10:53:44.956Z</time>
      </trkpt>
      <trkpt lat="47.51882029" lon="1.80088457">
        <ele>149.96</ele>
        <time>2025-11-27T10:53:52.956Z</time>
      </trkpt>
      <trkpt lat="47.51872879" lon="1.80083123">
        <ele>151.13</ele>
        <time>2025-11-27T10:54:00.956Z</time>
      </trkpt>
      <trkpt lat="47.51864182" lon="1.80076389">
        <ele>150.47</ele>
        <time>2025-11-27T10:54:08.956Z</time>
      </trkpt>
      <trkpt lat="47.51855939" lon="1.80069784">
        <ele>147.38</ele>
        <time>2025-11-27T10:54:16.956Z</time>
      </trkpt>
      <trkpt lat="47.51849741" lon="1.80059776">
        <ele>147.91</ele>
        <time>2025-11-27T10:54:24.956Z</time>
      </trkpt>
      <trkpt lat="47.51845291" lon="1.80047558">
        <ele>147.04</ele>
        <time>2025-11-27T10:54:33.956Z</time>
      </trkpt>
      <trkpt lat="47.51842458" lon="1.80034677">
        <ele>146.43</ele>
        <time>2025-11-27T10:54:41.956Z</time>
      </trkpt>
      <trkpt lat="47.51841293" lon="1.80019957">
        <ele>145.42</ele>
        <time>2025-11-27T10:54:50.956Z</time>
      </trkpt>
      <trkpt lat="47.51840646" lon="1.8000539">
        <ele>144.91</ele>
        <time>2025-11-27T10:54:58.956Z</time>
      </trkpt>
      <trkpt lat="47.51840706" lon="1.79990806">
        <ele>144.14</ele>
        <time>2025-11-27T10:55:07.956Z</time>
      </trkpt>
      <trkpt lat="47.51841503" lon="1.79976548">
        <ele>143.36</ele>
        <time>2025-11-27T10:55:15.956Z</time>
      </trkpt>
      <trkpt lat="47.51841366" lon="1.79961609">
        <ele>146.42</ele>
        <time>2025-11-27T10:55:23.956Z</time>
      </trkpt>
      <trkpt lat="47.51839835" lon="1.79946928">
        <ele>146.83</ele>
        <time>2025-11-27T10:55:31.956Z</time>
      </trkpt>
      <trkpt lat="47.51838487" lon="1.7993264">
        <ele>147.1</ele>
        <time>2025-11-27T10:55:39.956Z</time>
      </trkpt>
      <trkpt lat="47.51836487" lon="1.79919127">
        <ele>150.45</ele>
        <time>2025-11-27T10:55:47.956Z</time>
      </trkpt>
      <trkpt lat="47.51836977" lon="1.79904453">
        <ele>152.24</ele>
        <time>2025-11-27T10:55:55.956Z</time>
      </trkpt>
      <trkpt lat="47.51840383" lon="1.7989107">
        <ele>150.87</ele>
        <time>2025-11-27T10:56:02.956Z</time>
      </trkpt>
      <trkpt lat="47.51841587" lon="1.79876872">
        <ele>148.11</ele>
        <time>2025-11-27T10:56:10.956Z</time>
      </trkpt>
      <trkpt lat="47.5184361" lon="1.79862659">
        <ele>149.42</ele>
        <time>2025-11-27T10:56:18.956Z</time>
      </trkpt>
      <trkpt lat="47.51843923" lon="1.798477">
        <ele>150.54</ele>
        <time>2025-11-27T10:56:26.956Z</time>
      </trkpt>
      <trkpt lat="47.5184289" lon="1.79832967">
        <ele>148.64</ele>
        <time>2025-11-27T10:56:34.956Z</time>
      </trkpt>
      <trkpt lat="47.51842206" lon="1.7981868">
        <ele>148.54</ele>
        <time>2025-11-27T10:56:42.956Z</time>
      </trkpt>
      <trkpt lat="47.51841661" lon="1.79805341">
        <ele>147.79</ele>
        <time>2025-11-27T10:56:49.956Z</time>
      </trkpt>
      <trkpt lat="47.51841222" lon="1.79791766">
        <ele>150.06</ele>
        <time>2025-11-27T10:56:57.956Z</time>
      </trkpt>
      <trkpt lat="47.51840521" lon="1.79777246">
        <ele>146.52</ele>
        <time>2025-11-27T10:57:05.956Z</time>
      </trkpt>
      <trkpt lat="47.51839778" lon="1.79762718">
        <ele>147.55</ele>
        <time>2025-11-27T10:57:13.956Z</time>
      </trkpt>
      <trkpt lat="47.51839963" lon="1.79747831">
        <ele>148.97</ele>
        <time>2025-11-27T10:57:21.956Z</time>
      </trkpt>
      <trkpt lat="47.51840058" lon="1.7973298">
        <ele>145.92</ele>
        <time>2025-11-27T10:57:29.956Z</time>
      </trkpt>
      <trkpt lat="47.51843256" lon="1.79719164">
        <ele>142.78</ele>
        <time>2025-11-27T10:57:37.956Z</time>
      </trkpt>
      <trkpt lat="47.51846736" lon="1.79706619">
        <ele>146.36</ele>
        <time>2025-11-27T10:57:45.956Z</time>
      </trkpt>
      <trkpt lat="47.51846595" lon="1.79692872">
        <ele>148.59</ele>
        <time>2025-11-27T10:57:53.956Z</time>
      </trkpt>
      <trkpt lat="47.51845314" lon="1.79678931">
        <ele>147.11</ele>
        <time>2025-11-27T10:58:01.956Z</time>
      </trkpt>
      <trkpt lat="47.5184374" lon="1.79664505">
        <ele>149.17</ele>
        <time>2025-11-27T10:58:10.956Z</time>
      </trkpt>
      <trkpt lat="47.51840908" lon="1.79651848">
        <ele>149.32</ele>
        <time>2025-11-27T10:58:18.956Z</time>
      </trkpt>
      <trkpt lat="47.51838465" lon="1.79637269">
        <ele>153.24</ele>
        <time>2025-11-27T10:58:27.956Z</time>
      </trkpt>
      <trkpt lat="47.51834747" lon="1.79623874">
        <ele>153.29</ele>
        <time>2025-11-27T10:58:36.956Z</time>
      </trkpt>
      <trkpt lat="47.51832721" lon="1.7960939">
        <ele>153.8</ele>
        <time>2025-11-27T10:58:45.956Z</time>
      </trkpt>
      <trkpt lat="47.51831925" lon="1.79595179">
        <ele>155.39</ele>
        <time>2025-11-27T10:58:53.956Z</time>
      </trkpt>
      <trkpt lat="47.51831847" lon="1.79580605">
        <ele>154.75</ele>
        <time>2025-11-27T10:59:02.956Z</time>
      </trkpt>
      <trkpt lat="47.51831819" lon="1.79565891">
        <ele>153.61</ele>
        <time>2025-11-27T10:59:10.956Z</time>
      </trkpt>
      <trkpt lat="47.51831963" lon="1.79552117">
        <ele>153.44</ele>
        <time>2025-11-27T10:59:18.956Z</time>
      </trkpt>
      <trkpt lat="47.51832996" lon="1.79537694">
        <ele>149.44</ele>
        <time>2025-11-27T10:59:26.956Z</time>
      </trkpt>
      <trkpt lat="47.51833573" lon="1.79523134">
        <ele>150.24</ele>
        <time>2025-11-27T10:59:34.956Z</time>
      </trkpt>
      <trkpt lat="47.51831617" lon="1.79509736">
        <ele>148.75</ele>
        <time>2025-11-27T10:59:42.956Z</time>
      </trkpt>
      <trkpt lat="47.51825152" lon="1.79498787">
        <ele>149.95</ele>
        <time>2025-11-27T10:59:50.956Z</time>
      </trkpt>
      <trkpt lat="47.51821608" lon="1.79486343">
        <ele>147.23</ele>
        <time>2025-11-27T10:59:58.956Z</time>
      </trkpt>
      <trkpt lat="47.51818889" lon="1.79473626">
        <ele>144.59</ele>
        <time>2025-11-27T11:00:06.956Z</time>
      </trkpt>
      <trkpt lat="47.51815898" lon="1.79459919">
        <ele>144.58</ele>
        <time>2025-11-27T11:00:14.956Z</time>
      </trkpt>
      <trkpt lat="47.518124" lon="1.79446391">
        <ele>146.74</ele>
        <time>2025-11-27T11:00:22.956Z</time>
      </trkpt>
      <trkpt lat="47.51813508" lon="1.79431956">
        <ele>145.59</ele>
        <time>2025-11-27T11:00:31.956Z</time>
      </trkpt>
      <trkpt lat="47.51816584" lon="1.79418304">
        <ele>143.93</ele>
        <time>2025-11-27T11:00:40.956Z</time>
      </trkpt>
      <trkpt lat="47.5181943" lon="1.79403832">
        <ele>144.08</ele>
        <time>2025-11-27T11:00:49.956Z</time>
      </trkpt>
      <trkpt lat="47.51821581" lon="1.79389619">
        <ele>143.94</ele>
        <time>2025-11-27T11:00:58.956Z</time>
      </trkpt>
      <trkpt lat="47.51823631" lon="1.79376668">
        <ele>147.29</ele>
        <time>2025-11-27T11:01:05.956Z</time>
      </trkpt>
      <trkpt lat="47.51826262" lon="1.79362918">
        <ele>150.07</ele>
        <time>2025-11-27T11:01:13.956Z</time>
      </trkpt>
      <trkpt lat="47.51828514" lon="1.79348904">
        <ele>148.59</ele>
        <time>2025-11-27T11:01:21.956Z</time>
      </trkpt>
      <trkpt lat="47.51830835" lon="1.79334147">
        <ele>146.4</ele>
        <time>2025-11-27T11:01:29.956Z</time>
      </trkpt>
      <trkpt lat="47.51835205" lon="1.79322141">
        <ele>145.14</ele>
        <time>2025-11-27T11:01:36.956Z</time>
      </trkpt>
      <trkpt lat="47.51838324" lon="1.79308609">
        <ele>143.7</ele>
        <time>2025-11-27T11:01:44.956Z</time>
      </trkpt>
      <trkpt lat="47.51843116" lon="1.79297076">
        <ele>142.48</ele>
        <time>2025-11-27T11:01:51.956Z</time>
      </trkpt>
      <trkpt lat="47.51846409" lon="1.79283234">
        <ele>143.69</ele>
        <time>2025-11-27T11:02:00.956Z</time>
      </trkpt>
      <trkpt lat="47.51837836" lon="1.79278226">
        <ele>150.86</ele>
        <time>2025-11-27T11:03:10.956Z</time>
      </trkpt>
      <trkpt lat="47.51825433" lon="1.79273098">
        <ele>153.48</ele>
        <time>2025-11-27T11:03:22.956Z</time>
      </trkpt>
      <trkpt lat="47.51817477" lon="1.79265546">
        <ele>154.67</ele>
        <time>2025-11-27T11:03:31.956Z</time>
      </trkpt>
      <trkpt lat="47.51807714" lon="1.79263796">
        <ele>151.12</ele>
        <time>2025-11-27T11:04:01.956Z</time>
      </trkpt>
      <trkpt lat="47.51798774" lon="1.79265839">
        <ele>151.23</ele>
        <time>2025-11-27T11:04:11.956Z</time>
      </trkpt>
      <trkpt lat="47.51789752" lon="1.79268178">
        <ele>147.58</ele>
        <time>2025-11-27T11:04:20.956Z</time>
      </trkpt>
      <trkpt lat="47.51780077" lon="1.79267917">
        <ele>149.41</ele>
        <time>2025-11-27T11:04:30.956Z</time>
      </trkpt>
      <trkpt lat="47.51770172" lon="1.7927085">
        <ele>146.43</ele>
        <time>2025-11-27T11:04:40.956Z</time>
      </trkpt>
      <trkpt lat="47.5176119" lon="1.79276185">
        <ele>151.21</ele>
        <time>2025-11-27T11:04:48.956Z</time>
      </trkpt>
      <trkpt lat="47.51752365" lon="1.79278762">
        <ele>150.81</ele>
        <time>2025-11-27T11:04:56.956Z</time>
      </trkpt>
      <trkpt lat="47.51742763" lon="1.79280009">
        <ele>155.93</ele>
        <time>2025-11-27T11:05:05.956Z</time>
      </trkpt>
      <trkpt lat="47.51733022" lon="1.79280731">
        <ele>152.08</ele>
        <time>2025-11-27T11:05:14.956Z</time>
      </trkpt>
      <trkpt lat="47.51723157" lon="1.79280341">
        <ele>153.84</ele>
        <time>2025-11-27T11:05:21.956Z</time>
      </trkpt>
      <trkpt lat="47.51713129" lon="1.7928335">
        <ele>150.86</ele>
        <time>2025-11-27T11:05:28.956Z</time>
      </trkpt>
      <trkpt lat="47.51703578" lon="1.7928629">
        <ele>154.3</ele>
        <time>2025-11-27T11:05:35.956Z</time>
      </trkpt>
      <trkpt lat="47.51694439" lon="1.79286158">
        <ele>154.27</ele>
        <time>2025-11-27T11:05:43.956Z</time>
      </trkpt>
      <trkpt lat="47.51684641" lon="1.79283396">
        <ele>155.37</ele>
        <time>2025-11-27T11:05:52.956Z</time>
      </trkpt>
      <trkpt lat="47.51675533" lon="1.79282284">
        <ele>154.3</ele>
        <time>2025-11-27T11:06:00.956Z</time>
      </trkpt>
      <trkpt lat="47.51666403" lon="1.7927968">
        <ele>152.36</ele>
        <time>2025-11-27T11:06:09.956Z</time>
      </trkpt>
      <trkpt lat="47.51657097" lon="1.79278219">
        <ele>152.62</ele>
        <time>2025-11-27T11:06:17.956Z</time>
      </trkpt>
      <trkpt lat="47.51647982" lon="1.79277297">
        <ele>152.19</ele>
        <time>2025-11-27T11:06:25.956Z</time>
      </trkpt>
      <trkpt lat="47.51638791" lon="1.79278219">
        <ele>151.31</ele>
        <time>2025-11-27T11:06:32.956Z</time>
      </trkpt>
      <trkpt lat="47.51628987" lon="1.79279444">
        <ele>152.53</ele>
        <time>2025-11-27T11:06:40.956Z</time>
      </trkpt>
      <trkpt lat="47.51620141" lon="1.79275024">
        <ele>152.35</ele>
        <time>2025-11-27T11:06:49.956Z</time>
      </trkpt>
      <trkpt lat="47.51611159" lon="1.79273585">
        <ele>152.27</ele>
        <time>2025-11-27T11:06:57.956Z</time>
      </trkpt>
      <trkpt lat="47.51601521" lon="1.7927429">
        <ele>150.31</ele>
        <time>2025-11-27T11:07:06.956Z</time>
      </trkpt>
      <trkpt lat="47.51591836" lon="1.79273358">
        <ele>151.14</ele>
        <time>2025-11-27T11:07:15.956Z</time>
      </trkpt>
      <trkpt lat="47.51582393" lon="1.79272895">
        <ele>150.79</ele>
        <time>2025-11-27T11:07:23.956Z</time>
      </trkpt>
      <trkpt lat="47.51572854" lon="1.79272292">
        <ele>150.96</ele>
        <time>2025-11-27T11:07:31.956Z</time>
      </trkpt>
      <trkpt lat="47.51563335" lon="1.79273544">
        <ele>152.6</ele>
        <time>2025-11-27T11:07:40.956Z</time>
      </trkpt>
      <trkpt lat="47.51553687" lon="1.79274919">
        <ele>152.24</ele>
        <time>2025-11-27T11:07:50.956Z</time>
      </trkpt>
      <trkpt lat="47.5154494" lon="1.7927159">
        <ele>150.92</ele>
        <time>2025-11-27T11:07:58.956Z</time>
      </trkpt>
      <trkpt lat="47.51535516" lon="1.79271941">
        <ele>149.79</ele>
        <time>2025-11-27T11:08:06.956Z</time>
      </trkpt>
      <trkpt lat="47.51526456" lon="1.79271035">
        <ele>149.45</ele>
        <time>2025-11-27T11:08:14.956Z</time>
      </trkpt>
      <trkpt lat="47.51517289" lon="1.79270589">
        <ele>148.99</ele>
        <time>2025-11-27T11:08:22.956Z</time>
      </trkpt>
      <trkpt lat="47.51508013" lon="1.7927066">
        <ele>146.14</ele>
        <time>2025-11-27T11:08:30.956Z</time>
      </trkpt>
      <trkpt lat="47.51498045" lon="1.79270409">
        <ele>148.62</ele>
        <time>2025-11-27T11:08:38.956Z</time>
      </trkpt>
      <trkpt lat="47.51488655" lon="1.79270249">
        <ele>148.99</ele>
        <time>2025-11-27T11:08:46.956Z</time>
      </trkpt>
      <trkpt lat="47.51479076" lon="1.79270351">
        <ele>149.02</ele>
        <time>2025-11-27T11:08:54.956Z</time>
      </trkpt>
      <trkpt lat="47.51469769" lon="1.79270498">
        <ele>148.46</ele>
        <time>2025-11-27T11:09:02.956Z</time>
      </trkpt>
      <trkpt lat="47.51460031" lon="1.79270323">
        <ele>146.58</ele>
        <time>2025-11-27T11:09:10.956Z</time>
      </trkpt>
      <trkpt lat="47.51450382" lon="1.79270339">
        <ele>151.44</ele>
        <time>2025-11-27T11:09:18.956Z</time>
      </trkpt>
      <trkpt lat="47.51440797" lon="1.792692">
        <ele>151.38</ele>
        <time>2025-11-27T11:09:26.956Z</time>
      </trkpt>
      <trkpt lat="47.51431776" lon="1.79267197">
        <ele>150.77</ele>
        <time>2025-11-27T11:09:34.956Z</time>
      </trkpt>
      <trkpt lat="47.51421775" lon="1.79266">
        <ele>148.86</ele>
        <time>2025-11-27T11:09:43.956Z</time>
      </trkpt>
      <trkpt lat="47.5141241" lon="1.79267368">
        <ele>146.92</ele>
        <time>2025-11-27T11:09:51.956Z</time>
      </trkpt>
      <trkpt lat="47.5140299" lon="1.79267604">
        <ele>147.15</ele>
        <time>2025-11-27T11:10:00.956Z</time>
      </trkpt>
      <trkpt lat="47.51393967" lon="1.79266792">
        <ele>147.21</ele>
        <time>2025-11-27T11:10:08.956Z</time>
      </trkpt>
      <trkpt lat="47.51384964" lon="1.79265208">
        <ele>147.47</ele>
        <time>2025-11-27T11:10:16.956Z</time>
      </trkpt>
      <trkpt lat="47.5137487" lon="1.79266901">
        <ele>149.12</ele>
        <time>2025-11-27T11:10:24.956Z</time>
      </trkpt>
      <trkpt lat="47.51364697" lon="1.7926714">
        <ele>149.47</ele>
        <time>2025-11-27T11:10:33.956Z</time>
      </trkpt>
      <trkpt lat="47.51354827" lon="1.79265598">
        <ele>148.14</ele>
        <time>2025-11-27T11:10:42.956Z</time>
      </trkpt>
      <trkpt lat="47.51345288" lon="1.79267462">
        <ele>148.51</ele>
        <time>2025-11-27T11:10:49.956Z</time>
      </trkpt>
      <trkpt lat="47.51336483" lon="1.79264346">
        <ele>147.97</ele>
        <time>2025-11-27T11:10:57.956Z</time>
      </trkpt>
      <trkpt lat="47.51327199" lon="1.79263589">
        <ele>146.46</ele>
        <time>2025-11-27T11:11:05.956Z</time>
      </trkpt>
      <trkpt lat="47.51317669" lon="1.79265292">
        <ele>145.41</ele>
        <time>2025-11-27T11:11:13.956Z</time>
      </trkpt>
      <trkpt lat="47.51308078" lon="1.79265387">
        <ele>146.01</ele>
        <time>2025-11-27T11:11:21.956Z</time>
      </trkpt>
      <trkpt lat="47.51298737" lon="1.7926296">
        <ele>145.42</ele>
        <time>2025-11-27T11:11:29.956Z</time>
      </trkpt>
      <trkpt lat="47.51288776" lon="1.79260397">
        <ele>144.16</ele>
        <time>2025-11-27T11:11:38.956Z</time>
      </trkpt>
      <trkpt lat="47.51279922" lon="1.79262799">
        <ele>144.39</ele>
        <time>2025-11-27T11:11:45.956Z</time>
      </trkpt>
      <trkpt lat="47.51270523" lon="1.79264837">
        <ele>143.47</ele>
        <time>2025-11-27T11:11:52.956Z</time>
      </trkpt>
      <trkpt lat="47.51261324" lon="1.79267418">
        <ele>143.8</ele>
        <time>2025-11-27T11:12:00.956Z</time>
      </trkpt>
      <trkpt lat="47.51252359" lon="1.7926922">
        <ele>146.48</ele>
        <time>2025-11-27T11:12:07.956Z</time>
      </trkpt>
      <trkpt lat="47.5124255" lon="1.79267595">
        <ele>146.52</ele>
        <time>2025-11-27T11:12:16.956Z</time>
      </trkpt>
      <trkpt lat="47.51233237" lon="1.79266836">
        <ele>147.51</ele>
        <time>2025-11-27T11:12:26.956Z</time>
      </trkpt>
      <trkpt lat="47.51226114" lon="1.7925674">
        <ele>147.23</ele>
        <time>2025-11-27T11:12:35.956Z</time>
      </trkpt>
      <trkpt lat="47.51225403" lon="1.79243033">
        <ele>143.48</ele>
        <time>2025-11-27T11:12:41.956Z</time>
      </trkpt>
      <trkpt lat="47.51223555" lon="1.79229464">
        <ele>145.1</ele>
        <time>2025-11-27T11:12:58.956Z</time>
      </trkpt>
      <trkpt lat="47.51223531" lon="1.79215146">
        <ele>143.62</ele>
        <time>2025-11-27T11:13:08.956Z</time>
      </trkpt>
      <trkpt lat="47.51221797" lon="1.79200813">
        <ele>143.41</ele>
        <time>2025-11-27T11:13:15.956Z</time>
      </trkpt>
      <trkpt lat="47.51223351" lon="1.7918595">
        <ele>143.5</ele>
        <time>2025-11-27T11:13:24.956Z</time>
      </trkpt>
      <trkpt lat="47.51221793" lon="1.79171999">
        <ele>142.81</ele>
        <time>2025-11-27T11:13:30.956Z</time>
      </trkpt>
      <trkpt lat="47.51222038" lon="1.79158611">
        <ele>138.97</ele>
        <time>2025-11-27T11:13:37.956Z</time>
      </trkpt>
      <trkpt lat="47.51220814" lon="1.79144358">
        <ele>141.86</ele>
        <time>2025-11-27T11:13:43.956Z</time>
      </trkpt>
      <trkpt lat="47.51221068" lon="1.79130776">
        <ele>140.78</ele>
        <time>2025-11-27T11:13:51.956Z</time>
      </trkpt>
      <trkpt lat="47.51219816" lon="1.79116231">
        <ele>137.25</ele>
        <time>2025-11-27T11:14:01.956Z</time>
      </trkpt>
      <trkpt lat="47.51218766" lon="1.79101858">
        <ele>136.36</ele>
        <time>2025-11-27T11:14:09.956Z</time>
      </trkpt>
      <trkpt lat="47.51217758" lon="1.79088099">
        <ele>137.58</ele>
        <time>2025-11-27T11:14:16.956Z</time>
      </trkpt>
      <trkpt lat="47.51215129" lon="1.7907354">
        <ele>139.43</ele>
        <time>2025-11-27T11:14:24.956Z</time>
      </trkpt>
      <trkpt lat="47.51213315" lon="1.79058807">
        <ele>138.18</ele>
        <time>2025-11-27T11:14:32.956Z</time>
      </trkpt>
      <trkpt lat="47.5121292" lon="1.79044563">
        <ele>140.6</ele>
        <time>2025-11-27T11:14:41.956Z</time>
      </trkpt>
      <trkpt lat="47.51213138" lon="1.7903031">
        <ele>140.48</ele>
        <time>2025-11-27T11:14:50.956Z</time>
      </trkpt>
      <trkpt lat="47.51213835" lon="1.79015346">
        <ele>142.35</ele>
        <time>2025-11-27T11:14:59.956Z</time>
      </trkpt>
      <trkpt lat="47.51215725" lon="1.79001679">
        <ele>143.61</ele>
        <time>2025-11-27T11:15:07.956Z</time>
      </trkpt>
      <trkpt lat="47.51216024" lon="1.78987324">
        <ele>143.77</ele>
        <time>2025-11-27T11:15:15.956Z</time>
      </trkpt>
      <trkpt lat="47.51217758" lon="1.789738">
        <ele>143.18</ele>
        <time>2025-11-27T11:15:23.956Z</time>
      </trkpt>
      <trkpt lat="47.5121928" lon="1.78960335">
        <ele>144.69</ele>
        <time>2025-11-27T11:15:31.956Z</time>
      </trkpt>
      <trkpt lat="47.51220838" lon="1.78947231">
        <ele>144.36</ele>
        <time>2025-11-27T11:15:39.956Z</time>
      </trkpt>
      <trkpt lat="47.5122247" lon="1.78932936">
        <ele>140.29</ele>
        <time>2025-11-27T11:15:48.956Z</time>
      </trkpt>
      <trkpt lat="47.51222425" lon="1.78918556">
        <ele>140.1</ele>
        <time>2025-11-27T11:15:57.956Z</time>
      </trkpt>
      <trkpt lat="47.51221983" lon="1.78904887">
        <ele>138.15</ele>
        <time>2025-11-27T11:16:05.956Z</time>
      </trkpt>
      <trkpt lat="47.5122357" lon="1.78891647">
        <ele>141.69</ele>
        <time>2025-11-27T11:16:13.956Z</time>
      </trkpt>
      <trkpt lat="47.51224279" lon="1.78876671">
        <ele>139.57</ele>
        <time>2025-11-27T11:16:21.956Z</time>
      </trkpt>
      <trkpt lat="47.512261" lon="1.78862731">
        <ele>140.42</ele>
        <time>2025-11-27T11:16:29.956Z</time>
      </trkpt>
      <trkpt lat="47.51227814" lon="1.78849357">
        <ele>141.72</ele>
        <time>2025-11-27T11:16:38.956Z</time>
      </trkpt>
      <trkpt lat="47.51230508" lon="1.78835519">
        <ele>141.31</ele>
        <time>2025-11-27T11:16:48.956Z</time>
      </trkpt>
      <trkpt lat="47.51232272" lon="1.7882217">
        <ele>140.66</ele>
        <time>2025-11-27T11:16:57.956Z</time>
      </trkpt>
      <trkpt lat="47.51230294" lon="1.78807902">
        <ele>138.27</ele>
        <time>2025-11-27T11:17:06.956Z</time>
      </trkpt>
      <trkpt lat="47.51228397" lon="1.78793691">
        <ele>138.44</ele>
        <time>2025-11-27T11:17:15.956Z</time>
      </trkpt>
      <trkpt lat="47.51227939" lon="1.78780415">
        <ele>140.36</ele>
        <time>2025-11-27T11:17:25.956Z</time>
      </trkpt>
      <trkpt lat="47.51226459" lon="1.78765867">
        <ele>140.71</ele>
        <time>2025-11-27T11:17:35.956Z</time>
      </trkpt>
      <trkpt lat="47.51225827" lon="1.78751167">
        <ele>141.53</ele>
        <time>2025-11-27T11:17:44.956Z</time>
      </trkpt>
      <trkpt lat="47.51226112" lon="1.7873785">
        <ele>139.75</ele>
        <time>2025-11-27T11:17:53.956Z</time>
      </trkpt>
      <trkpt lat="47.51226565" lon="1.78724517">
        <ele>139.75</ele>
        <time>2025-11-27T11:18:01.956Z</time>
      </trkpt>
      <trkpt lat="47.51226838" lon="1.78710715">
        <ele>141.72</ele>
        <time>2025-11-27T11:18:08.956Z</time>
      </trkpt>
      <trkpt lat="47.51227988" lon="1.78696804">
        <ele>141.86</ele>
        <time>2025-11-27T11:18:16.956Z</time>
      </trkpt>
      <trkpt lat="47.51228889" lon="1.78683384">
        <ele>141.09</ele>
        <time>2025-11-27T11:18:24.956Z</time>
      </trkpt>
      <trkpt lat="47.5122893" lon="1.78669914">
        <ele>142.76</ele>
        <time>2025-11-27T11:18:32.956Z</time>
      </trkpt>
      <trkpt lat="47.5123134" lon="1.78657123">
        <ele>142.24</ele>
        <time>2025-11-27T11:18:40.956Z</time>
      </trkpt>
      <trkpt lat="47.51234095" lon="1.78643649">
        <ele>142.26</ele>
        <time>2025-11-27T11:18:49.956Z</time>
      </trkpt>
      <trkpt lat="47.51235482" lon="1.78630348">
        <ele>141.69</ele>
        <time>2025-11-27T11:18:57.956Z</time>
      </trkpt>
      <trkpt lat="47.51237433" lon="1.78616031">
        <ele>141.58</ele>
        <time>2025-11-27T11:19:06.956Z</time>
      </trkpt>
      <trkpt lat="47.51237261" lon="1.78602464">
        <ele>141.07</ele>
        <time>2025-11-27T11:19:12.956Z</time>
      </trkpt>
      <trkpt lat="47.51238272" lon="1.78588513">
        <ele>140.03</ele>
        <time>2025-11-27T11:19:21.956Z</time>
      </trkpt>
      <trkpt lat="47.51239785" lon="1.78574348">
        <ele>141.26</ele>
        <time>2025-11-27T11:19:30.956Z</time>
      </trkpt>
      <trkpt lat="47.5124339" lon="1.78562172">
        <ele>141.24</ele>
        <time>2025-11-27T11:19:39.956Z</time>
      </trkpt>
      <trkpt lat="47.51248903" lon="1.78551296">
        <ele>141.32</ele>
        <time>2025-11-27T11:19:50.956Z</time>
      </trkpt>
      <trkpt lat="47.51252474" lon="1.78537672">
        <ele>143.17</ele>
        <time>2025-11-27T11:19:58.956Z</time>
      </trkpt>
      <trkpt lat="47.51251239" lon="1.78523953">
        <ele>145.24</ele>
        <time>2025-11-27T11:20:05.956Z</time>
      </trkpt>
      <trkpt lat="47.51251724" lon="1.7851012">
        <ele>144.98</ele>
        <time>2025-11-27T11:20:12.956Z</time>
      </trkpt>
      <trkpt lat="47.51252208" lon="1.78496124">
        <ele>145.95</ele>
        <time>2025-11-27T11:20:21.956Z</time>
      </trkpt>
      <trkpt lat="47.51253201" lon="1.78482592">
        <ele>146.75</ele>
        <time>2025-11-27T11:20:29.956Z</time>
      </trkpt>
      <trkpt lat="47.51252263" lon="1.78468159">
        <ele>145.65</ele>
        <time>2025-11-27T11:20:37.956Z</time>
      </trkpt>
      <trkpt lat="47.51252265" lon="1.7845452">
        <ele>146.82</ele>
        <time>2025-11-27T11:20:45.956Z</time>
      </trkpt>
      <trkpt lat="47.51252774" lon="1.78440754">
        <ele>145.83</ele>
        <time>2025-11-27T11:20:54.956Z</time>
      </trkpt>
      <trkpt lat="47.51253344" lon="1.78427327">
        <ele>147.14</ele>
        <time>2025-11-27T11:21:02.956Z</time>
      </trkpt>
      <trkpt lat="47.51253433" lon="1.78412536">
        <ele>145.67</ele>
        <time>2025-11-27T11:22:16.956Z</time>
      </trkpt>
      <trkpt lat="47.51253906" lon="1.78398696">
        <ele>140.97</ele>
        <time>2025-11-27T11:22:37.956Z</time>
      </trkpt>
      <trkpt lat="47.51256805" lon="1.78381678">
        <ele>143.21</ele>
        <time>2025-11-27T11:22:46.956Z</time>
      </trkpt>
      <trkpt lat="47.51257909" lon="1.78366354">
        <ele>142.75</ele>
        <time>2025-11-27T11:22:54.956Z</time>
      </trkpt>
      <trkpt lat="47.51258297" lon="1.78351402">
        <ele>138.97</ele>
        <time>2025-11-27T11:23:10.956Z</time>
      </trkpt>
      <trkpt lat="47.51257078" lon="1.78338038">
        <ele>140.09</ele>
        <time>2025-11-27T11:23:17.956Z</time>
      </trkpt>
      <trkpt lat="47.51256441" lon="1.78323414">
        <ele>139.78</ele>
        <time>2025-11-27T11:23:25.956Z</time>
      </trkpt>
      <trkpt lat="47.51255526" lon="1.78308975">
        <ele>142.12</ele>
        <time>2025-11-27T11:23:34.956Z</time>
      </trkpt>
      <trkpt lat="47.51253999" lon="1.78295227">
        <ele>144.23</ele>
        <time>2025-11-27T11:23:42.956Z</time>
      </trkpt>
      <trkpt lat="47.51251444" lon="1.78281342">
        <ele>144.5</ele>
        <time>2025-11-27T11:23:50.956Z</time>
      </trkpt>
      <trkpt lat="47.51250538" lon="1.78267349">
        <ele>142.56</ele>
        <time>2025-11-27T11:23:58.956Z</time>
      </trkpt>
      <trkpt lat="47.51247976" lon="1.78253706">
        <ele>141.34</ele>
        <time>2025-11-27T11:24:04.956Z</time>
      </trkpt>
      <trkpt lat="47.51245768" lon="1.78240511">
        <ele>140.27</ele>
        <time>2025-11-27T11:24:11.956Z</time>
      </trkpt>
      <trkpt lat="47.51243618" lon="1.7822675">
        <ele>141.12</ele>
        <time>2025-11-27T11:24:19.956Z</time>
      </trkpt>
      <trkpt lat="47.51240891" lon="1.78213964">
        <ele>141.63</ele>
        <time>2025-11-27T11:24:26.956Z</time>
      </trkpt>
      <trkpt lat="47.5123865" lon="1.78200379">
        <ele>143.28</ele>
        <time>2025-11-27T11:24:33.956Z</time>
      </trkpt>
      <trkpt lat="47.51236111" lon="1.781871">
        <ele>143.18</ele>
        <time>2025-11-27T11:24:40.956Z</time>
      </trkpt>
      <trkpt lat="47.51233925" lon="1.78172624">
        <ele>143.47</ele>
        <time>2025-11-27T11:24:48.956Z</time>
      </trkpt>
      <trkpt lat="47.5123265" lon="1.78159432">
        <ele>142.02</ele>
        <time>2025-11-27T11:24:55.956Z</time>
      </trkpt>
      <trkpt lat="47.51230937" lon="1.78146076">
        <ele>143.43</ele>
        <time>2025-11-27T11:25:02.956Z</time>
      </trkpt>
      <trkpt lat="47.51227603" lon="1.78133342">
        <ele>143.93</ele>
        <time>2025-11-27T11:25:10.956Z</time>
      </trkpt>
      <trkpt lat="47.5122034" lon="1.78123716">
        <ele>145.24</ele>
        <time>2025-11-27T11:25:18.956Z</time>
      </trkpt>
      <trkpt lat="47.5121205" lon="1.78117771">
        <ele>148.23</ele>
        <time>2025-11-27T11:25:26.956Z</time>
      </trkpt>
      <trkpt lat="47.51208889" lon="1.78105268">
        <ele>147.76</ele>
        <time>2025-11-27T11:25:33.956Z</time>
      </trkpt>
      <trkpt lat="47.51208543" lon="1.78091331">
        <ele>145.64</ele>
        <time>2025-11-27T11:25:40.956Z</time>
      </trkpt>
      <trkpt lat="47.51210419" lon="1.78076529">
        <ele>146.87</ele>
        <time>2025-11-27T11:25:48.956Z</time>
      </trkpt>
      <trkpt lat="47.5121342" lon="1.780628">
        <ele>147.1</ele>
        <time>2025-11-27T11:25:55.956Z</time>
      </trkpt>
      <trkpt lat="47.51216491" lon="1.78049389">
        <ele>145.7</ele>
        <time>2025-11-27T11:26:03.956Z</time>
      </trkpt>
      <trkpt lat="47.51219489" lon="1.7803548">
        <ele>145.15</ele>
        <time>2025-11-27T11:26:12.956Z</time>
      </trkpt>
      <trkpt lat="47.51221635" lon="1.78022184">
        <ele>145.24</ele>
        <time>2025-11-27T11:26:20.956Z</time>
      </trkpt>
      <trkpt lat="47.51223911" lon="1.78008781">
        <ele>145.88</ele>
        <time>2025-11-27T11:26:28.956Z</time>
      </trkpt>
      <trkpt lat="47.51226235" lon="1.77994556">
        <ele>145.43</ele>
        <time>2025-11-27T11:26:36.956Z</time>
      </trkpt>
      <trkpt lat="47.51227924" lon="1.77980863">
        <ele>143.15</ele>
        <time>2025-11-27T11:26:43.956Z</time>
      </trkpt>
      <trkpt lat="47.51230321" lon="1.77966535">
        <ele>141.56</ele>
        <time>2025-11-27T11:26:51.956Z</time>
      </trkpt>
      <trkpt lat="47.51232021" lon="1.77952684">
        <ele>142.84</ele>
        <time>2025-11-27T11:26:59.956Z</time>
      </trkpt>
      <trkpt lat="47.51235299" lon="1.77939966">
        <ele>143.15</ele>
        <time>2025-11-27T11:27:07.956Z</time>
      </trkpt>
      <trkpt lat="47.51238401" lon="1.7792748">
        <ele>143.28</ele>
        <time>2025-11-27T11:27:14.956Z</time>
      </trkpt>
      <trkpt lat="47.51241555" lon="1.77914196">
        <ele>142.15</ele>
        <time>2025-11-27T11:27:22.956Z</time>
      </trkpt>
      <trkpt lat="47.51243965" lon="1.7790018">
        <ele>141.33</ele>
        <time>2025-11-27T11:27:30.956Z</time>
      </trkpt>
      <trkpt lat="47.51244113" lon="1.77886555">
        <ele>141.77</ele>
        <time>2025-11-27T11:27:38.956Z</time>
      </trkpt>
      <trkpt lat="47.51242339" lon="1.77872382">
        <ele>142.38</ele>
        <time>2025-11-27T11:27:45.956Z</time>
      </trkpt>
      <trkpt lat="47.51242356" lon="1.77858008">
        <ele>142.8</ele>
        <time>2025-11-27T11:27:52.956Z</time>
      </trkpt>
      <trkpt lat="47.51241888" lon="1.77843748">
        <ele>143.11</ele>
        <time>2025-11-27T11:28:00.956Z</time>
      </trkpt>
      <trkpt lat="47.51242722" lon="1.77828705">
        <ele>144.82</ele>
        <time>2025-11-27T11:28:08.956Z</time>
      </trkpt>
      <trkpt lat="47.51242411" lon="1.77815013">
        <ele>147.09</ele>
        <time>2025-11-27T11:28:15.956Z</time>
      </trkpt>
      <trkpt lat="47.51242861" lon="1.7779998">
        <ele>148.15</ele>
        <time>2025-11-27T11:28:23.956Z</time>
      </trkpt>
      <trkpt lat="47.51243177" lon="1.77785605">
        <ele>148.38</ele>
        <time>2025-11-27T11:28:30.956Z</time>
      </trkpt>
      <trkpt lat="47.51242821" lon="1.77770449">
        <ele>148.6</ele>
        <time>2025-11-27T11:28:38.956Z</time>
      </trkpt>
      <trkpt lat="47.51242108" lon="1.77755312">
        <ele>147.05</ele>
        <time>2025-11-27T11:28:46.956Z</time>
      </trkpt>
      <trkpt lat="47.51243837" lon="1.7774201">
        <ele>145.35</ele>
        <time>2025-11-27T11:29:02.956Z</time>
      </trkpt>
      <trkpt lat="47.51245543" lon="1.77728143">
        <ele>144.35</ele>
        <time>2025-11-27T11:29:09.956Z</time>
      </trkpt>
      <trkpt lat="47.51252334" lon="1.77718292">
        <ele>143.63</ele>
        <time>2025-11-27T11:29:16.956Z</time>
      </trkpt>
      <trkpt lat="47.51259945" lon="1.77708403">
        <ele>144.56</ele>
        <time>2025-11-27T11:29:24.956Z</time>
      </trkpt>
      <trkpt lat="47.51265521" lon="1.77697043">
        <ele>145.33</ele>
        <time>2025-11-27T11:29:31.956Z</time>
      </trkpt>
      <trkpt lat="47.51269681" lon="1.77684605">
        <ele>144.47</ele>
        <time>2025-11-27T11:29:38.956Z</time>
      </trkpt>
      <trkpt lat="47.51272761" lon="1.77671969">
        <ele>144.72</ele>
        <time>2025-11-27T11:29:45.956Z</time>
      </trkpt>
      <trkpt lat="47.51276046" lon="1.77656642">
        <ele>143.74</ele>
        <time>2025-11-27T11:29:53.956Z</time>
      </trkpt>
      <trkpt lat="47.51278323" lon="1.77642916">
        <ele>143.08</ele>
        <time>2025-11-27T11:30:00.956Z</time>
      </trkpt>
      <trkpt lat="47.51279435" lon="1.77629452">
        <ele>142.97</ele>
        <time>2025-11-27T11:30:07.956Z</time>
      </trkpt>
      <trkpt lat="47.51281445" lon="1.77614992">
        <ele>143.46</ele>
        <time>2025-11-27T11:30:15.956Z</time>
      </trkpt>
      <trkpt lat="47.51284008" lon="1.77601957">
        <ele>144</ele>
        <time>2025-11-27T11:30:23.956Z</time>
      </trkpt>
      <trkpt lat="47.51286936" lon="1.77589318">
        <ele>144.19</ele>
        <time>2025-11-27T11:30:31.956Z</time>
      </trkpt>
      <trkpt lat="47.51290279" lon="1.77575076">
        <ele>144.01</ele>
        <time>2025-11-27T11:30:39.956Z</time>
      </trkpt>
      <trkpt lat="47.51293894" lon="1.77562918">
        <ele>143.73</ele>
        <time>2025-11-27T11:30:46.956Z</time>
      </trkpt>
      <trkpt lat="47.51298413" lon="1.77550826">
        <ele>143.83</ele>
        <time>2025-11-27T11:30:53.956Z</time>
      </trkpt>
      <trkpt lat="47.51303407" lon="1.77539404">
        <ele>145.06</ele>
        <time>2025-11-27T11:31:00.956Z</time>
      </trkpt>
      <trkpt lat="47.51309273" lon="1.77528626">
        <ele>143.82</ele>
        <time>2025-11-27T11:31:07.956Z</time>
      </trkpt>
      <trkpt lat="47.51314901" lon="1.77516792">
        <ele>144.47</ele>
        <time>2025-11-27T11:31:15.956Z</time>
      </trkpt>
      <trkpt lat="47.51320843" lon="1.77504668">
        <ele>144.17</ele>
        <time>2025-11-27T11:31:24.956Z</time>
      </trkpt>
      <trkpt lat="47.51322702" lon="1.77496616">
        <ele>142.6</ele>
        <time>2025-11-27T11:33:25.956Z</time>
      </trkpt>
      <trkpt lat="47.51322893" lon="1.77496557">
        <ele>142.38</ele>
        <time>2025-11-27T11:35:26.956Z</time>
      </trkpt>
      <trkpt lat="47.513247" lon="1.77499186">
        <ele>141.79</ele>
        <time>2025-11-27T11:37:57.956Z</time>
      </trkpt>
      <trkpt lat="47.51327327" lon="1.77500632">
        <ele>141.11</ele>
        <time>2025-11-27T11:41:03.956Z</time>
      </trkpt>
      <trkpt lat="47.51326826" lon="1.77499055">
        <ele>140.39</ele>
        <time>2025-11-27T11:43:04.956Z</time>
      </trkpt>
      <trkpt lat="47.5132889" lon="1.77502971">
        <ele>140.68</ele>
        <time>2025-11-27T11:45:06.956Z</time>
      </trkpt>
      <trkpt lat="47.51337063" lon="1.77494889">
        <ele>143.18</ele>
        <time>2025-11-27T11:45:33.956Z</time>
      </trkpt>
      <trkpt lat="47.51341049" lon="1.77481293">
        <ele>138.99</ele>
        <time>2025-11-27T11:45:47.956Z</time>
      </trkpt>
      <trkpt lat="47.51344423" lon="1.77468141">
        <ele>140.04</ele>
        <time>2025-11-27T11:45:59.956Z</time>
      </trkpt>
      <trkpt lat="47.51347207" lon="1.77453703">
        <ele>138.39</ele>
        <time>2025-11-27T11:46:20.956Z</time>
      </trkpt>
      <trkpt lat="47.51350172" lon="1.77440313">
        <ele>137.34</ele>
        <time>2025-11-27T11:46:29.956Z</time>
      </trkpt>
      <trkpt lat="47.51354237" lon="1.77426792">
        <ele>137.06</ele>
        <time>2025-11-27T11:46:38.956Z</time>
      </trkpt>
      <trkpt lat="47.51356688" lon="1.77413849">
        <ele>136.79</ele>
        <time>2025-11-27T11:46:45.956Z</time>
      </trkpt>
      <trkpt lat="47.51361125" lon="1.77400913">
        <ele>137.58</ele>
        <time>2025-11-27T11:46:53.956Z</time>
      </trkpt>
      <trkpt lat="47.51365438" lon="1.77388394">
        <ele>135.73</ele>
        <time>2025-11-27T11:47:00.956Z</time>
      </trkpt>
      <trkpt lat="47.51370181" lon="1.77376668">
        <ele>138.18</ele>
        <time>2025-11-27T11:47:07.956Z</time>
      </trkpt>
      <trkpt lat="47.51376536" lon="1.77365999">
        <ele>142.1</ele>
        <time>2025-11-27T11:47:15.956Z</time>
      </trkpt>
      <trkpt lat="47.51380547" lon="1.77353432">
        <ele>141.85</ele>
        <time>2025-11-27T11:47:25.956Z</time>
      </trkpt>
      <trkpt lat="47.51385023" lon="1.77341551">
        <ele>142.68</ele>
        <time>2025-11-27T11:47:34.956Z</time>
      </trkpt>
      <trkpt lat="47.51388761" lon="1.77329253">
        <ele>144.34</ele>
        <time>2025-11-27T11:47:42.956Z</time>
      </trkpt>
      <trkpt lat="47.51393784" lon="1.77317901">
        <ele>145.34</ele>
        <time>2025-11-27T11:47:50.956Z</time>
      </trkpt>
      <trkpt lat="47.51397284" lon="1.77305394">
        <ele>145.53</ele>
        <time>2025-11-27T11:47:58.956Z</time>
      </trkpt>
      <trkpt lat="47.51401549" lon="1.77292094">
        <ele>145.22</ele>
        <time>2025-11-27T11:48:06.956Z</time>
      </trkpt>
      <trkpt lat="47.51406592" lon="1.77279207">
        <ele>145.62</ele>
        <time>2025-11-27T11:48:14.956Z</time>
      </trkpt>
      <trkpt lat="47.51410675" lon="1.77266616">
        <ele>145.01</ele>
        <time>2025-11-27T11:48:22.956Z</time>
      </trkpt>
      <trkpt lat="47.51415229" lon="1.77255106">
        <ele>145.22</ele>
        <time>2025-11-27T11:48:29.956Z</time>
      </trkpt>
      <trkpt lat="47.514194" lon="1.77242121">
        <ele>145.32</ele>
        <time>2025-11-27T11:48:37.956Z</time>
      </trkpt>
      <trkpt lat="47.51424302" lon="1.77229491">
        <ele>146.51</ele>
        <time>2025-11-27T11:48:45.956Z</time>
      </trkpt>
      <trkpt lat="47.51428905" lon="1.7721617">
        <ele>146.33</ele>
        <time>2025-11-27T11:48:54.956Z</time>
      </trkpt>
      <trkpt lat="47.51433663" lon="1.77204103">
        <ele>148.61</ele>
        <time>2025-11-27T11:49:02.956Z</time>
      </trkpt>
      <trkpt lat="47.51439105" lon="1.77191764">
        <ele>148.75</ele>
        <time>2025-11-27T11:49:11.956Z</time>
      </trkpt>
      <trkpt lat="47.51443292" lon="1.77178607">
        <ele>148.11</ele>
        <time>2025-11-27T11:49:19.956Z</time>
      </trkpt>
      <trkpt lat="47.51448164" lon="1.77166517">
        <ele>147.26</ele>
        <time>2025-11-27T11:49:27.956Z</time>
      </trkpt>
      <trkpt lat="47.51450536" lon="1.77152097">
        <ele>146.65</ele>
        <time>2025-11-27T11:49:35.956Z</time>
      </trkpt>
      <trkpt lat="47.51458376" lon="1.7714487">
        <ele>149.03</ele>
        <time>2025-11-27T11:49:45.956Z</time>
      </trkpt>
      <trkpt lat="47.51468507" lon="1.77146528">
        <ele>146.72</ele>
        <time>2025-11-27T11:49:53.956Z</time>
      </trkpt>
      <trkpt lat="47.51477526" lon="1.77150975">
        <ele>148.33</ele>
        <time>2025-11-27T11:50:02.956Z</time>
      </trkpt>
      <trkpt lat="47.51486669" lon="1.77152041">
        <ele>144.96</ele>
        <time>2025-11-27T11:50:17.956Z</time>
      </trkpt>
      <trkpt lat="47.51493318" lon="1.77142169">
        <ele>142.86</ele>
        <time>2025-11-27T11:50:25.956Z</time>
      </trkpt>
      <trkpt lat="47.51492975" lon="1.77127595">
        <ele>145.68</ele>
        <time>2025-11-27T11:50:34.956Z</time>
      </trkpt>
      <trkpt lat="47.51492921" lon="1.771137">
        <ele>148.08</ele>
        <time>2025-11-27T11:50:42.956Z</time>
      </trkpt>
      <trkpt lat="47.51492228" lon="1.77099709">
        <ele>147.73</ele>
        <time>2025-11-27T11:50:51.956Z</time>
      </trkpt>
      <trkpt lat="47.5149222" lon="1.7708594">
        <ele>146.56</ele>
        <time>2025-11-27T11:51:00.956Z</time>
      </trkpt>
      <trkpt lat="47.51493077" lon="1.77072339">
        <ele>145.26</ele>
        <time>2025-11-27T11:51:08.956Z</time>
      </trkpt>
      <trkpt lat="47.51493333" lon="1.77058657">
        <ele>144.69</ele>
        <time>2025-11-27T11:51:16.956Z</time>
      </trkpt>
      <trkpt lat="47.51493956" lon="1.77044742">
        <ele>146.51</ele>
        <time>2025-11-27T11:51:24.956Z</time>
      </trkpt>
      <trkpt lat="47.51493385" lon="1.77031072">
        <ele>146.08</ele>
        <time>2025-11-27T11:51:32.956Z</time>
      </trkpt>
      <trkpt lat="47.51494504" lon="1.77017706">
        <ele>145.73</ele>
        <time>2025-11-27T11:51:39.956Z</time>
      </trkpt>
      <trkpt lat="47.51496905" lon="1.77003096">
        <ele>144.3</ele>
        <time>2025-11-27T11:51:47.956Z</time>
      </trkpt>
      <trkpt lat="47.51500371" lon="1.76990145">
        <ele>145.45</ele>
        <time>2025-11-27T11:51:54.956Z</time>
      </trkpt>
      <trkpt lat="47.5151081" lon="1.76991189">
        <ele>144.54</ele>
        <time>2025-11-27T11:52:01.956Z</time>
      </trkpt>
      <trkpt lat="47.51519548" lon="1.76995292">
        <ele>145.52</ele>
        <time>2025-11-27T11:52:07.956Z</time>
      </trkpt>
      <trkpt lat="47.51529773" lon="1.7699708">
        <ele>146.72</ele>
        <time>2025-11-27T11:52:15.956Z</time>
      </trkpt>
      <trkpt lat="47.51539241" lon="1.76998078">
        <ele>145.52</ele>
        <time>2025-11-27T11:52:22.956Z</time>
      </trkpt>
      <trkpt lat="47.51548372" lon="1.76998715">
        <ele>145.9</ele>
        <time>2025-11-27T11:52:30.956Z</time>
      </trkpt>
      <trkpt lat="47.51558133" lon="1.76998822">
        <ele>149.36</ele>
        <time>2025-11-27T11:52:38.956Z</time>
      </trkpt>
      <trkpt lat="47.51567375" lon="1.76999392">
        <ele>148.05</ele>
        <time>2025-11-27T11:52:46.956Z</time>
      </trkpt>
      <trkpt lat="47.51576805" lon="1.77003684">
        <ele>148.26</ele>
        <time>2025-11-27T11:52:54.956Z</time>
      </trkpt>
      <trkpt lat="47.51586261" lon="1.77004905">
        <ele>149.12</ele>
        <time>2025-11-27T11:53:02.956Z</time>
      </trkpt>
      <trkpt lat="47.51595703" lon="1.77005966">
        <ele>149.55</ele>
        <time>2025-11-27T11:53:10.956Z</time>
      </trkpt>
      <trkpt lat="47.51605553" lon="1.77008006">
        <ele>149.08</ele>
        <time>2025-11-27T11:53:18.956Z</time>
      </trkpt>
      <trkpt lat="47.51615448" lon="1.77011558">
        <ele>148.12</ele>
        <time>2025-11-27T11:53:26.956Z</time>
      </trkpt>
      <trkpt lat="47.51625055" lon="1.7701307">
        <ele>150.12</ele>
        <time>2025-11-27T11:53:35.956Z</time>
      </trkpt>
      <trkpt lat="47.51634786" lon="1.77013133">
        <ele>148.38</ele>
        <time>2025-11-27T11:53:44.956Z</time>
      </trkpt>
      <trkpt lat="47.51643874" lon="1.77013628">
        <ele>148.44</ele>
        <time>2025-11-27T11:53:52.956Z</time>
      </trkpt>
      <trkpt lat="47.51653582" lon="1.77012629">
        <ele>150.43</ele>
        <time>2025-11-27T11:54:00.956Z</time>
      </trkpt>
      <trkpt lat="47.51663205" lon="1.77013378">
        <ele>148.28</ele>
        <time>2025-11-27T11:54:08.956Z</time>
      </trkpt>
      <trkpt lat="47.51672766" lon="1.77013381">
        <ele>150.62</ele>
        <time>2025-11-27T11:54:16.956Z</time>
      </trkpt>
      <trkpt lat="47.51682718" lon="1.77015716">
        <ele>149.76</ele>
        <time>2025-11-27T11:54:24.956Z</time>
      </trkpt>
      <trkpt lat="47.51692313" lon="1.77017903">
        <ele>149.44</ele>
        <time>2025-11-27T11:54:32.956Z</time>
      </trkpt>
      <trkpt lat="47.51701792" lon="1.77020331">
        <ele>147.06</ele>
        <time>2025-11-27T11:54:40.956Z</time>
      </trkpt>
      <trkpt lat="47.51711648" lon="1.77021621">
        <ele>144.58</ele>
        <time>2025-11-27T11:54:48.956Z</time>
      </trkpt>
      <trkpt lat="47.51721519" lon="1.77021725">
        <ele>145.82</ele>
        <time>2025-11-27T11:54:56.956Z</time>
      </trkpt>
      <trkpt lat="47.5173125" lon="1.770238">
        <ele>145.07</ele>
        <time>2025-11-27T11:55:05.956Z</time>
      </trkpt>
      <trkpt lat="47.51740742" lon="1.77023209">
        <ele>147.46</ele>
        <time>2025-11-27T11:55:13.956Z</time>
      </trkpt>
      <trkpt lat="47.51750236" lon="1.77021932">
        <ele>149.32</ele>
        <time>2025-11-27T11:55:21.956Z</time>
      </trkpt>
      <trkpt lat="47.51760199" lon="1.7702079">
        <ele>149.98</ele>
        <time>2025-11-27T11:55:29.956Z</time>
      </trkpt>
      <trkpt lat="47.51769484" lon="1.77020758">
        <ele>149.85</ele>
        <time>2025-11-27T11:55:36.956Z</time>
      </trkpt>
      <trkpt lat="47.51778596" lon="1.77021498">
        <ele>150.64</ele>
        <time>2025-11-27T11:55:44.956Z</time>
      </trkpt>
      <trkpt lat="47.51788701" lon="1.77021293">
        <ele>149.12</ele>
        <time>2025-11-27T11:55:52.956Z</time>
      </trkpt>
      <trkpt lat="47.51797956" lon="1.77020387">
        <ele>146.11</ele>
        <time>2025-11-27T11:56:00.956Z</time>
      </trkpt>
      <trkpt lat="47.51807055" lon="1.7701895">
        <ele>146.76</ele>
        <time>2025-11-27T11:56:08.956Z</time>
      </trkpt>
      <trkpt lat="47.51814387" lon="1.77010472">
        <ele>146.11</ele>
        <time>2025-11-27T11:56:16.956Z</time>
      </trkpt>
      <trkpt lat="47.51819413" lon="1.76998509">
        <ele>145.26</ele>
        <time>2025-11-27T11:56:23.956Z</time>
      </trkpt>
      <trkpt lat="47.51827222" lon="1.76991012">
        <ele>145.81</ele>
        <time>2025-11-27T11:56:31.956Z</time>
      </trkpt>
      <trkpt lat="47.51835441" lon="1.76982787">
        <ele>147.27</ele>
        <time>2025-11-27T11:56:38.956Z</time>
      </trkpt>
      <trkpt lat="47.51844042" lon="1.769772">
        <ele>148.08</ele>
        <time>2025-11-27T11:56:46.956Z</time>
      </trkpt>
      <trkpt lat="47.51852885" lon="1.7697134">
        <ele>147.87</ele>
        <time>2025-11-27T11:56:54.956Z</time>
      </trkpt>
      <trkpt lat="47.51861754" lon="1.7696362">
        <ele>150.1</ele>
        <time>2025-11-27T11:57:02.956Z</time>
      </trkpt>
      <trkpt lat="47.5186997" lon="1.76957551">
        <ele>149.56</ele>
        <time>2025-11-27T11:57:09.956Z</time>
      </trkpt>
      <trkpt lat="47.51878724" lon="1.76952331">
        <ele>147.83</ele>
        <time>2025-11-27T11:57:17.956Z</time>
      </trkpt>
      <trkpt lat="47.51886576" lon="1.76944835">
        <ele>149.21</ele>
        <time>2025-11-27T11:57:24.956Z</time>
      </trkpt>
      <trkpt lat="47.51895357" lon="1.76940231">
        <ele>150.02</ele>
        <time>2025-11-27T11:57:32.956Z</time>
      </trkpt>
      <trkpt lat="47.51904118" lon="1.76933158">
        <ele>149.03</ele>
        <time>2025-11-27T11:57:40.956Z</time>
      </trkpt>
      <trkpt lat="47.51913774" lon="1.76931397">
        <ele>150.95</ele>
        <time>2025-11-27T11:57:49.956Z</time>
      </trkpt>
      <trkpt lat="47.51920898" lon="1.76922784">
        <ele>151.46</ele>
        <time>2025-11-27T11:57:57.956Z</time>
      </trkpt>
      <trkpt lat="47.51929752" lon="1.76915031">
        <ele>151.01</ele>
        <time>2025-11-27T11:58:05.956Z</time>
      </trkpt>
      <trkpt lat="47.51938222" lon="1.76909135">
        <ele>149.74</ele>
        <time>2025-11-27T11:58:13.956Z</time>
      </trkpt>
      <trkpt lat="47.51946897" lon="1.76904065">
        <ele>150.01</ele>
        <time>2025-11-27T11:58:21.956Z</time>
      </trkpt>
      <trkpt lat="47.51954887" lon="1.76896094">
        <ele>148.21</ele>
        <time>2025-11-27T11:58:29.956Z</time>
      </trkpt>
      <trkpt lat="47.51963451" lon="1.76891038">
        <ele>147.43</ele>
        <time>2025-11-27T11:58:38.956Z</time>
      </trkpt>
      <trkpt lat="47.51972272" lon="1.76885406">
        <ele>146.51</ele>
        <time>2025-11-27T11:58:47.956Z</time>
      </trkpt>
      <trkpt lat="47.51981332" lon="1.76880065">
        <ele>146.17</ele>
        <time>2025-11-27T11:58:56.956Z</time>
      </trkpt>
      <trkpt lat="47.51989938" lon="1.76876179">
        <ele>144.06</ele>
        <time>2025-11-27T11:59:05.956Z</time>
      </trkpt>
      <trkpt lat="47.51998319" lon="1.76868741">
        <ele>143.55</ele>
        <time>2025-11-27T11:59:13.956Z</time>
      </trkpt>
      <trkpt lat="47.52006518" lon="1.76860172">
        <ele>144.74</ele>
        <time>2025-11-27T11:59:21.956Z</time>
      </trkpt>
      <trkpt lat="47.52014816" lon="1.76853691">
        <ele>146.15</ele>
        <time>2025-11-27T11:59:28.956Z</time>
      </trkpt>
      <trkpt lat="47.52023466" lon="1.76848273">
        <ele>147.74</ele>
        <time>2025-11-27T11:59:35.956Z</time>
      </trkpt>
      <trkpt lat="47.52032176" lon="1.76842747">
        <ele>147.54</ele>
        <time>2025-11-27T11:59:43.956Z</time>
      </trkpt>
      <trkpt lat="47.52041175" lon="1.76838007">
        <ele>149.36</ele>
        <time>2025-11-27T11:59:50.956Z</time>
      </trkpt>
      <trkpt lat="47.52048713" lon="1.76829145">
        <ele>146.85</ele>
        <time>2025-11-27T12:00:11.956Z</time>
      </trkpt>
      <trkpt lat="47.52055891" lon="1.76820102">
        <ele>145.85</ele>
        <time>2025-11-27T12:00:27.956Z</time>
      </trkpt>
      <trkpt lat="47.52065743" lon="1.76817292">
        <ele>147.57</ele>
        <time>2025-11-27T12:00:34.956Z</time>
      </trkpt>
      <trkpt lat="47.52074586" lon="1.76811399">
        <ele>149.56</ele>
        <time>2025-11-27T12:00:42.956Z</time>
      </trkpt>
      <trkpt lat="47.52083559" lon="1.76807067">
        <ele>149.31</ele>
        <time>2025-11-27T12:00:50.956Z</time>
      </trkpt>
      <trkpt lat="47.52092158" lon="1.76801705">
        <ele>150.66</ele>
        <time>2025-11-27T12:00:58.956Z</time>
      </trkpt>
      <trkpt lat="47.5210128" lon="1.76797928">
        <ele>151.42</ele>
        <time>2025-11-27T12:01:08.956Z</time>
      </trkpt>
      <trkpt lat="47.52110217" lon="1.76795006">
        <ele>149.81</ele>
        <time>2025-11-27T12:01:17.956Z</time>
      </trkpt>
      <trkpt lat="47.5211751" lon="1.7678634">
        <ele>149.77</ele>
        <time>2025-11-27T12:01:24.956Z</time>
      </trkpt>
      <trkpt lat="47.52127503" lon="1.76782083">
        <ele>149.39</ele>
        <time>2025-11-27T12:01:30.956Z</time>
      </trkpt>
      <trkpt lat="47.52138573" lon="1.76779216">
        <ele>150.11</ele>
        <time>2025-11-27T12:01:36.956Z</time>
      </trkpt>
      <trkpt lat="47.52147527" lon="1.76774873">
        <ele>150.82</ele>
        <time>2025-11-27T12:01:42.956Z</time>
      </trkpt>
      <trkpt lat="47.52156391" lon="1.7676816">
        <ele>152.8</ele>
        <time>2025-11-27T12:01:50.956Z</time>
      </trkpt>
      <trkpt lat="47.52165615" lon="1.76762138">
        <ele>153.04</ele>
        <time>2025-11-27T12:01:57.956Z</time>
      </trkpt>
      <trkpt lat="47.52174403" lon="1.76757598">
        <ele>154.77</ele>
        <time>2025-11-27T12:02:03.956Z</time>
      </trkpt>
      <trkpt lat="47.52183163" lon="1.76753562">
        <ele>154.03</ele>
        <time>2025-11-27T12:02:09.956Z</time>
      </trkpt>
      <trkpt lat="47.52192168" lon="1.76747632">
        <ele>155.2</ele>
        <time>2025-11-27T12:02:16.956Z</time>
      </trkpt>
      <trkpt lat="47.52200512" lon="1.76741584">
        <ele>153.95</ele>
        <time>2025-11-27T12:02:24.956Z</time>
      </trkpt>
      <trkpt lat="47.52209659" lon="1.76735568">
        <ele>153.74</ele>
        <time>2025-11-27T12:02:31.956Z</time>
      </trkpt>
      <trkpt lat="47.52218249" lon="1.76731565">
        <ele>153.32</ele>
        <time>2025-11-27T12:02:37.956Z</time>
      </trkpt>
      <trkpt lat="47.52226977" lon="1.76727087">
        <ele>153.65</ele>
        <time>2025-11-27T12:02:44.956Z</time>
      </trkpt>
      <trkpt lat="47.52236669" lon="1.76723677">
        <ele>158.59</ele>
        <time>2025-11-27T12:02:52.956Z</time>
      </trkpt>
      <trkpt lat="47.52245535" lon="1.76719261">
        <ele>155.77</ele>
        <time>2025-11-27T12:03:00.956Z</time>
      </trkpt>
      <trkpt lat="47.52255022" lon="1.767126">
        <ele>154.21</ele>
        <time>2025-11-27T12:03:07.956Z</time>
      </trkpt>
      <trkpt lat="47.52262976" lon="1.76706004">
        <ele>156.53</ele>
        <time>2025-11-27T12:03:15.956Z</time>
      </trkpt>
      <trkpt lat="47.52272057" lon="1.76702659">
        <ele>153.79</ele>
        <time>2025-11-27T12:03:22.956Z</time>
      </trkpt>
      <trkpt lat="47.52281079" lon="1.76697747">
        <ele>153.03</ele>
        <time>2025-11-27T12:03:30.956Z</time>
      </trkpt>
      <trkpt lat="47.52290722" lon="1.76692196">
        <ele>154.62</ele>
        <time>2025-11-27T12:03:37.956Z</time>
      </trkpt>
      <trkpt lat="47.52299274" lon="1.76685848">
        <ele>154.37</ele>
        <time>2025-11-27T12:03:44.956Z</time>
      </trkpt>
      <trkpt lat="47.52308068" lon="1.7668009">
        <ele>151.56</ele>
        <time>2025-11-27T12:03:52.956Z</time>
      </trkpt>
      <trkpt lat="47.52317107" lon="1.76675547">
        <ele>150.09</ele>
        <time>2025-11-27T12:04:00.956Z</time>
      </trkpt>
      <trkpt lat="47.52325754" lon="1.76671203">
        <ele>148.97</ele>
        <time>2025-11-27T12:04:08.956Z</time>
      </trkpt>
      <trkpt lat="47.52335198" lon="1.76666038">
        <ele>148.52</ele>
        <time>2025-11-27T12:04:17.956Z</time>
      </trkpt>
      <trkpt lat="47.52344328" lon="1.76660577">
        <ele>148.02</ele>
        <time>2025-11-27T12:04:26.956Z</time>
      </trkpt>
      <trkpt lat="47.52353465" lon="1.76655838">
        <ele>146.39</ele>
        <time>2025-11-27T12:04:34.956Z</time>
      </trkpt>
      <trkpt lat="47.52362691" lon="1.76650716">
        <ele>145.29</ele>
        <time>2025-11-27T12:04:43.956Z</time>
      </trkpt>
      <trkpt lat="47.52371953" lon="1.76644867">
        <ele>143.3</ele>
        <time>2025-11-27T12:04:53.956Z</time>
      </trkpt>
      <trkpt lat="47.52380489" lon="1.76640074">
        <ele>142.45</ele>
        <time>2025-11-27T12:05:02.956Z</time>
      </trkpt>
      <trkpt lat="47.52388816" lon="1.76633437">
        <ele>141.01</ele>
        <time>2025-11-27T12:05:12.956Z</time>
      </trkpt>
      <trkpt lat="47.52397415" lon="1.76628443">
        <ele>140.41</ele>
        <time>2025-11-27T12:05:21.956Z</time>
      </trkpt>
      <trkpt lat="47.52406751" lon="1.76624667">
        <ele>140.67</ele>
        <time>2025-11-27T12:05:29.956Z</time>
      </trkpt>
      <trkpt lat="47.52415678" lon="1.7662043">
        <ele>139.06</ele>
        <time>2025-11-27T12:05:37.956Z</time>
      </trkpt>
      <trkpt lat="47.52424646" lon="1.76614156">
        <ele>139.83</ele>
        <time>2025-11-27T12:05:46.956Z</time>
      </trkpt>
      <trkpt lat="47.52433307" lon="1.76608906">
        <ele>139.93</ele>
        <time>2025-11-27T12:05:54.956Z</time>
      </trkpt>
      <trkpt lat="47.52442017" lon="1.76602778">
        <ele>138.82</ele>
        <time>2025-11-27T12:06:02.956Z</time>
      </trkpt>
      <trkpt lat="47.52451021" lon="1.76597691">
        <ele>139.37</ele>
        <time>2025-11-27T12:06:11.956Z</time>
      </trkpt>
      <trkpt lat="47.52459599" lon="1.76593471">
        <ele>137.88</ele>
        <time>2025-11-27T12:06:19.956Z</time>
      </trkpt>
      <trkpt lat="47.52468995" lon="1.7658801">
        <ele>135.55</ele>
        <time>2025-11-27T12:06:27.956Z</time>
      </trkpt>
      <trkpt lat="47.5247836" lon="1.76581983">
        <ele>135.37</ele>
        <time>2025-11-27T12:06:34.956Z</time>
      </trkpt>
      <trkpt lat="47.52487979" lon="1.76577451">
        <ele>135.33</ele>
        <time>2025-11-27T12:06:42.956Z</time>
      </trkpt>
      <trkpt lat="47.52497342" lon="1.7657273">
        <ele>135.35</ele>
        <time>2025-11-27T12:06:50.956Z</time>
      </trkpt>
      <trkpt lat="47.52506521" lon="1.76568657">
        <ele>134.34</ele>
        <time>2025-11-27T12:06:58.956Z</time>
      </trkpt>
      <trkpt lat="47.52516056" lon="1.76564235">
        <ele>135.04</ele>
        <time>2025-11-27T12:07:07.956Z</time>
      </trkpt>
      <trkpt lat="47.5252484" lon="1.76557984">
        <ele>136.25</ele>
        <time>2025-11-27T12:07:15.956Z</time>
      </trkpt>
      <trkpt lat="47.52534331" lon="1.76552664">
        <ele>137.23</ele>
        <time>2025-11-27T12:07:22.956Z</time>
      </trkpt>
      <trkpt lat="47.52543124" lon="1.76548461">
        <ele>140.34</ele>
        <time>2025-11-27T12:07:30.956Z</time>
      </trkpt>
      <trkpt lat="47.52551777" lon="1.76542294">
        <ele>144.66</ele>
        <time>2025-11-27T12:07:50.956Z</time>
      </trkpt>
      <trkpt lat="47.5255939" lon="1.76550271">
        <ele>144.13</ele>
        <time>2025-11-27T12:08:00.956Z</time>
      </trkpt>
      <trkpt lat="47.52557661" lon="1.76564173">
        <ele>145.1</ele>
        <time>2025-11-27T12:08:12.956Z</time>
      </trkpt>
      <trkpt lat="47.52557158" lon="1.76578465">
        <ele>145.14</ele>
        <time>2025-11-27T12:08:21.956Z</time>
      </trkpt>
      <trkpt lat="47.52556406" lon="1.76592832">
        <ele>144.83</ele>
        <time>2025-11-27T12:08:30.956Z</time>
      </trkpt>
      <trkpt lat="47.5255669" lon="1.76607489">
        <ele>145.63</ele>
        <time>2025-11-27T12:08:38.956Z</time>
      </trkpt>
      <trkpt lat="47.52555881" lon="1.7662208">
        <ele>147.02</ele>
        <time>2025-11-27T12:08:46.956Z</time>
      </trkpt>
      <trkpt lat="47.52555061" lon="1.76636751">
        <ele>148.16</ele>
        <time>2025-11-27T12:08:54.956Z</time>
      </trkpt>
      <trkpt lat="47.52557906" lon="1.76649535">
        <ele>148.72</ele>
        <time>2025-11-27T12:09:02.956Z</time>
      </trkpt>
      <trkpt lat="47.52563855" lon="1.76660824">
        <ele>148.38</ele>
        <time>2025-11-27T12:09:11.956Z</time>
      </trkpt>
      <trkpt lat="47.52571425" lon="1.76669487">
        <ele>148.02</ele>
        <time>2025-11-27T12:09:19.956Z</time>
      </trkpt>
      <trkpt lat="47.52579853" lon="1.7667666">
        <ele>145.64</ele>
        <time>2025-11-27T12:09:27.956Z</time>
      </trkpt>
      <trkpt lat="47.5258882" lon="1.76680346">
        <ele>145.06</ele>
        <time>2025-11-27T12:09:34.956Z</time>
      </trkpt>
      <trkpt lat="47.5259781" lon="1.76682444">
        <ele>143.44</ele>
        <time>2025-11-27T12:09:42.956Z</time>
      </trkpt>
      <trkpt lat="47.52607395" lon="1.76683395">
        <ele>145.72</ele>
        <time>2025-11-27T12:09:49.956Z</time>
      </trkpt>
      <trkpt lat="47.52616396" lon="1.76685183">
        <ele>147.87</ele>
        <time>2025-11-27T12:09:56.956Z</time>
      </trkpt>
      <trkpt lat="47.52626008" lon="1.76687931">
        <ele>147.87</ele>
        <time>2025-11-27T12:10:04.956Z</time>
      </trkpt>
      <trkpt lat="47.52635143" lon="1.76689889">
        <ele>147.36</ele>
        <time>2025-11-27T12:10:12.956Z</time>
      </trkpt>
      <trkpt lat="47.52644365" lon="1.76694638">
        <ele>146.58</ele>
        <time>2025-11-27T12:10:20.956Z</time>
      </trkpt>
      <trkpt lat="47.52652988" lon="1.76699802">
        <ele>145.86</ele>
        <time>2025-11-27T12:10:27.956Z</time>
      </trkpt>
      <trkpt lat="47.52661475" lon="1.76707446">
        <ele>146.56</ele>
        <time>2025-11-27T12:10:35.956Z</time>
      </trkpt>
      <trkpt lat="47.52666896" lon="1.76719014">
        <ele>145.83</ele>
        <time>2025-11-27T12:10:44.161Z</time>
      </trkpt>
      <trkpt lat="47.52666896" lon="1.76719014">
        <ele>94.21701548323131</ele>
        <time>2025-11-27T12:10:44.161Z</time>
      </trkpt>
      <trkpt lat="47.52668087105886" lon="1.7678558294188558">
        <ele>97.17446456700645</ele>
        <time>2025-11-27T12:11:22.967Z</time>
      </trkpt>
      <trkpt lat="47.52669278211771" lon="1.7685215188377117">
        <ele>99.76551142204606</ele>
        <time>2025-11-27T12:12:01.773Z</time>
      </trkpt>
      <trkpt lat="47.52670469317657" lon="1.7691872082565674">
        <ele>98.06578699556228</ele>
        <time>2025-11-27T12:12:40.579Z</time>
      </trkpt>
      <trkpt lat="47.526716604235425" lon="1.7698528976754233">
        <ele>98.62823029385615</ele>
        <time>2025-11-27T12:13:19.385Z</time>
      </trkpt>
      <trkpt lat="47.52672851529428" lon="1.770518587094279">
        <ele>98.39190512210217</ele>
        <time>2025-11-27T12:13:58.191Z</time>
      </trkpt>
      <trkpt lat="47.526740426353136" lon="1.771184276513135">
        <ele>100.6863750855907</ele>
        <time>2025-11-27T12:14:36.997Z</time>
      </trkpt>
      <trkpt lat="47.52675233741199" lon="1.7718499659319906">
        <ele>101.04016555089189</ele>
        <time>2025-11-27T12:15:15.803Z</time>
      </trkpt>
      <trkpt lat="47.526764248470855" lon="1.7725156553508465">
        <ele>99.41065473211653</ele>
        <time>2025-11-27T12:15:54.609Z</time>
      </trkpt>
      <trkpt lat="47.52677615952971" lon="1.7731813447697022">
        <ele>98.13934982647277</ele>
        <time>2025-11-27T12:16:33.415Z</time>
      </trkpt>
      <trkpt lat="47.526788070588566" lon="1.7738470341885582">
        <ele>98.4961582746364</ele>
        <time>2025-11-27T12:17:12.221Z</time>
      </trkpt>
      <trkpt lat="47.52679998164742" lon="1.7745127236074139">
        <ele>100.36438609943923</ele>
        <time>2025-11-27T12:17:51.027Z</time>
      </trkpt>
      <trkpt lat="47.52681189270628" lon="1.7751784130262696">
        <ele>101.11745914839805</ele>
        <time>2025-11-27T12:18:29.833Z</time>
      </trkpt>
      <trkpt lat="47.52682380376513" lon="1.7758441024451255">
        <ele>99.97013497869493</ele>
        <time>2025-11-27T12:19:08.639Z</time>
      </trkpt>
      <trkpt lat="47.52683571482399" lon="1.7765097918639812">
        <ele>98.25084493677491</ele>
        <time>2025-11-27T12:19:47.445Z</time>
      </trkpt>
      <trkpt lat="47.526847625882844" lon="1.777175481282837">
        <ele>97.32892873678415</ele>
        <time>2025-11-27T12:20:26.251Z</time>
      </trkpt>
      <trkpt lat="47.5268595369417" lon="1.7778411707016928">
        <ele>98.23592183347877</ele>
        <time>2025-11-27T12:21:05.057Z</time>
      </trkpt>
      <trkpt lat="47.526871448000556" lon="1.7785068601205487">
        <ele>96.86796880751051</ele>
        <time>2025-11-27T12:21:43.863Z</time>
      </trkpt>
      <trkpt lat="47.52688335905941" lon="1.7791725495394044">
        <ele>96.96396583043982</ele>
        <time>2025-11-27T12:22:22.669Z</time>
      </trkpt>
      <trkpt lat="47.52689527011827" lon="1.7798382389582603">
        <ele>97.35146628059528</ele>
        <time>2025-11-27T12:23:01.475Z</time>
      </trkpt>
      <trkpt lat="47.52690718117712" lon="1.780503928377116">
        <ele>95.87885474371801</ele>
        <time>2025-11-27T12:23:40.281Z</time>
      </trkpt>
      <trkpt lat="47.52691909223598" lon="1.781169617795972">
        <ele>94.94617813169111</ele>
        <time>2025-11-27T12:24:19.087Z</time>
      </trkpt>
      <trkpt lat="47.526931003294834" lon="1.7818353072148276">
        <ele>95.91238480928205</ele>
        <time>2025-11-27T12:24:57.893Z</time>
      </trkpt>
      <trkpt lat="47.52694291435369" lon="1.7825009966336833">
        <ele>96.34830371011174</ele>
        <time>2025-11-27T12:25:36.699Z</time>
      </trkpt>
      <trkpt lat="47.52695482541255" lon="1.7831666860525393">
        <ele>96.47150847681374</ele>
        <time>2025-11-27T12:26:15.505Z</time>
      </trkpt>
      <trkpt lat="47.52696673647141" lon="1.783832375471395">
        <ele>96.46069332510406</ele>
        <time>2025-11-27T12:26:54.311Z</time>
      </trkpt>
      <trkpt lat="47.526978647530264" lon="1.7844980648902509">
        <ele>97.28215181781032</ele>
        <time>2025-11-27T12:27:33.117Z</time>
      </trkpt>
      <trkpt lat="47.52699055858912" lon="1.7851637543091066">
        <ele>98.26915660388516</ele>
        <time>2025-11-27T12:28:11.923Z</time>
      </trkpt>
      <trkpt lat="47.527002469647975" lon="1.7858294437279625">
        <ele>98.78819898180569</ele>
        <time>2025-11-27T12:28:50.729Z</time>
      </trkpt>
      <trkpt lat="47.52701438070683" lon="1.7864951331468182">
        <ele>96.25496316558095</ele>
        <time>2025-11-27T12:29:29.535Z</time>
      </trkpt>
      <trkpt lat="47.52702629176569" lon="1.787160822565674">
        <ele>92.86837598797986</ele>
        <time>2025-11-27T12:30:08.341Z</time>
      </trkpt>
      <trkpt lat="47.52703820282454" lon="1.7878265119845298">
        <ele>93.95179811283128</ele>
        <time>2025-11-27T12:30:47.147Z</time>
      </trkpt>
      <trkpt lat="47.5270501138834" lon="1.7884922014033857">
        <ele>94.45453529212537</ele>
        <time>2025-11-27T12:31:25.953Z</time>
      </trkpt>
      <trkpt lat="47.52706202494225" lon="1.7891578908222414">
        <ele>95.5669273996662</ele>
        <time>2025-11-27T12:32:04.759Z</time>
      </trkpt>
      <trkpt lat="47.52707393600111" lon="1.7898235802410973">
        <ele>94.54674852648893</ele>
        <time>2025-11-27T12:32:43.565Z</time>
      </trkpt>
      <trkpt lat="47.527085847059965" lon="1.790489269659953">
        <ele>98.18065229808924</ele>
        <time>2025-11-27T12:33:22.371Z</time>
      </trkpt>
      <trkpt lat="47.52709775811882" lon="1.7911549590788087">
        <ele>98.18364969994934</ele>
        <time>2025-11-27T12:34:01.177Z</time>
      </trkpt>
      <trkpt lat="47.527109669177676" lon="1.7918206484976646">
        <ele>95.26662491732871</ele>
        <time>2025-11-27T12:34:39.983Z</time>
      </trkpt>
      <trkpt lat="47.52712158023653" lon="1.7924863379165203">
        <ele>94.36551795373805</ele>
        <time>2025-11-27T12:35:18.788Z</time>
      </trkpt>
      <trkpt lat="47.527133491295395" lon="1.7931520273353763">
        <ele>95.55350161821362</ele>
        <time>2025-11-27T12:35:57.593Z</time>
      </trkpt>
      <trkpt lat="47.52714540235425" lon="1.793817716754232">
        <ele>96.73271561255726</ele>
        <time>2025-11-27T12:36:36.398Z</time>
      </trkpt>
      <trkpt lat="47.527157313413106" lon="1.7944834061730879">
        <ele>98.31289883494205</ele>
        <time>2025-11-27T12:37:15.203Z</time>
      </trkpt>
      <trkpt lat="47.52716922447196" lon="1.7951490955919436">
        <ele>100.30559219513198</ele>
        <time>2025-11-27T12:37:54.008Z</time>
      </trkpt>
      <trkpt lat="47.52718113553082" lon="1.7958147850107995">
        <ele>99.51088499443446</ele>
        <time>2025-11-27T12:38:32.813Z</time>
      </trkpt>
      <trkpt lat="47.52719304658967" lon="1.7964804744296552">
        <ele>98.37851032307455</ele>
        <time>2025-11-27T12:39:11.618Z</time>
      </trkpt>
      <trkpt lat="47.52720495764853" lon="1.797146163848511">
        <ele>97.21624502834487</ele>
        <time>2025-11-27T12:39:50.423Z</time>
      </trkpt>
      <trkpt lat="47.527216868707384" lon="1.7978118532673668">
        <ele>99.79112691255389</ele>
        <time>2025-11-27T12:40:29.228Z</time>
      </trkpt>
      <trkpt lat="47.52721874373586" lon="1.7979166455138227">
        <ele>100.15914894314541</ele>
        <time>2025-11-27T12:40:35.339Z</time>
      </trkpt>
      <trkpt lat="47.52721874373586" lon="1.7979166455138227">
        <ele>100.15914894314541</ele>
        <time>2025-11-27T12:40:35.339Z</time>
      </trkpt>
      <trkpt lat="47.527315422456866" lon="1.7985669992045423">
        <ele>98.50337912326287</ele>
        <time>2025-11-27T12:41:14.164Z</time>
      </trkpt>
      <trkpt lat="47.527383930698505" lon="1.7990278512651798">
        <ele>97.33015606105448</ele>
        <time>2025-11-27T12:41:42.658Z</time>
      </trkpt>
      <trkpt lat="47.52747713171421" lon="1.7996793216099507">
        <ele>96.44702298723446</ele>
        <time>2025-11-27T12:42:22.869Z</time>
      </trkpt>
      <trkpt lat="47.527570332729915" lon="1.8003307919547218">
        <ele>96.01897594705231</ele>
        <time>2025-11-27T12:43:03.080Z</time>
      </trkpt>
      <trkpt lat="47.52766353374562" lon="1.8009822622994927">
        <ele>96.98925557653422</ele>
        <time>2025-11-27T12:43:43.291Z</time>
      </trkpt>
      <trkpt lat="47.52775673476132" lon="1.8016337326442637">
        <ele>97.9878601278413</ele>
        <time>2025-11-27T12:44:23.502Z</time>
      </trkpt>
      <trkpt lat="47.52784993577702" lon="1.8022852029890346">
        <ele>98</ele>
        <time>2025-11-27T12:45:03.713Z</time>
      </trkpt>
      <trkpt lat="47.52788530243109" lon="1.8025324140965893">
        <ele>98</ele>
        <time>2025-11-27T12:45:18.973Z</time>
      </trkpt>
      <trkpt lat="47.5279724825846" lon="1.8025558889415834">
        <ele>98.00000000000001</ele>
        <time>2025-11-27T12:45:26.898Z</time>
      </trkpt>
      <trkpt lat="47.52819236900567" lon="1.8031367737126984">
        <ele>98.41321251681212</ele>
        <time>2025-11-27T12:46:07.114Z</time>
      </trkpt>
      <trkpt lat="47.52826572385567" lon="1.8033305588270423">
        <ele>98.2837388821141</ele>
        <time>2025-11-27T12:46:20.530Z</time>
      </trkpt>
      <trkpt lat="47.528463858921214" lon="1.8036239943895112">
        <ele>97.73548121224243</ele>
        <time>2025-11-27T12:46:45.591Z</time>
      </trkpt>
      <trkpt lat="47.52856688885964" lon="1.8041169661345577">
        <ele>97.63857765873013</ele>
        <time>2025-11-27T12:47:16.755Z</time>
      </trkpt>
      <trkpt lat="47.52876502278744" lon="1.8046334127255363">
        <ele>98.15191275216694</ele>
        <time>2025-11-27T12:47:52.626Z</time>
      </trkpt>
      <trkpt lat="47.528804649483476" lon="1.8048564237530513">
        <ele>97.86956868902915</ele>
        <time>2025-11-27T12:48:06.552Z</time>
      </trkpt>
      <trkpt lat="47.52912260724728" lon="1.8053273208594358">
        <ele>95.63445292767186</ele>
        <time>2025-11-27T12:48:46.768Z</time>
      </trkpt>
      <trkpt lat="47.52917713896045" lon="1.8054080826110237">
        <ele>95.32109237867493</ele>
        <time>2025-11-27T12:48:53.665Z</time>
      </trkpt>
      <trkpt lat="47.52950999965887" lon="1.8058188923982073">
        <ele>96.52013402502186</ele>
        <time>2025-11-27T12:49:32.417Z</time>
      </trkpt>
      <trkpt lat="47.52993796031032" lon="1.8060184285808702">
        <ele>96.08008424509411</ele>
        <time>2025-11-27T12:50:12.544Z</time>
      </trkpt>
      <trkpt lat="47.530278741294495" lon="1.80608885311662">
        <ele>95.52820146759113</ele>
        <time>2025-11-27T12:50:43.318Z</time>
      </trkpt>
      <trkpt lat="47.53039874619117" lon="1.8054470413682213">
        <ele>92.95293361703047</ele>
        <time>2025-11-27T12:51:23.534Z</time>
      </trkpt>
      <trkpt lat="47.530421393141665" lon="1.805325920653189">
        <ele>92.45142946792838</ele>
        <time>2025-11-27T12:51:31.123Z</time>
      </trkpt>
      <trkpt lat="47.530548194458476" lon="1.8050324850907202">
        <ele>91.45592226511855</ele>
        <time>2025-11-27T12:51:52.161Z</time>
      </trkpt>
      <trkpt lat="47.5306432952444" lon="1.8047038372603765">
        <ele>92.16343821385063</ele>
        <time>2025-11-27T12:52:13.753Z</time>
      </trkpt>
      <trkpt lat="47.530682920521286" lon="1.8045160384997985">
        <ele>93.15998952269716</ele>
        <time>2025-11-27T12:52:25.634Z</time>
      </trkpt>
      <trkpt lat="47.530706695672535" lon="1.8041169661345577">
        <ele>94.35712828567532</ele>
        <time>2025-11-27T12:52:49.826Z</time>
      </trkpt>
      <trkpt lat="47.53085727138253" lon="1.803706156347289">
        <ele>95.51642314554269</ele>
        <time>2025-11-27T12:53:18.053Z</time>
      </trkpt>
      <trkpt lat="47.53109502162354" lon="1.803412720784877">
        <ele>96.20099327219724</ele>
        <time>2025-11-27T12:53:45.732Z</time>
      </trkpt>
      <trkpt lat="47.531285221040434" lon="1.8033188214041047">
        <ele>96.23741438360972</ele>
        <time>2025-11-27T12:54:03.663Z</time>
      </trkpt>
      <trkpt lat="47.53172949071116" lon="1.803421633539835">
        <ele>95.60406552809329</ele>
        <time>2025-11-27T12:54:43.879Z</time>
      </trkpt>
      <trkpt lat="47.53179241611278" lon="1.8034361956298426">
        <ele>95.40386504782468</ele>
        <time>2025-11-27T12:54:49.575Z</time>
      </trkpt>
      <trkpt lat="47.53193506384338" lon="1.8035418324316765">
        <ele>95.05610378868938</ele>
        <time>2025-11-27T12:55:03.839Z</time>
      </trkpt>
      <trkpt lat="47.53206186149981" lon="1.803776580882186">
        <ele>94.1959287219688</ele>
        <time>2025-11-27T12:55:21.992Z</time>
      </trkpt>
      <trkpt lat="47.53217280919773" lon="1.80439866427497">
        <ele>94.15208020822655</ele>
        <time>2025-11-27T12:56:00.845Z</time>
      </trkpt>
      <trkpt lat="47.53223322719182" lon="1.8050586150190195">
        <ele>93.50660904021296</ele>
        <time>2025-11-27T12:56:41.061Z</time>
      </trkpt>
      <trkpt lat="47.53223620777749" lon="1.8050911722026513">
        <ele>93.40065822814977</ele>
        <time>2025-11-27T12:56:43.044Z</time>
      </trkpt>
      <trkpt lat="47.53248187654799" lon="1.8049855354008457">
        <ele>93.2394302572598</ele>
        <time>2025-11-27T12:57:05.923Z</time>
      </trkpt>
      <trkpt lat="47.53259282335796" lon="1.8051850715834235">
        <ele>92.81390750967067</ele>
        <time>2025-11-27T12:57:21.532Z</time>
      </trkpt>
      <trkpt lat="47.53262452240318" lon="1.8054432948779606">
        <ele>92.30610181116612</ele>
        <time>2025-11-27T12:57:37.380Z</time>
      </trkpt>
      <trkpt lat="47.532853543728784" lon="1.806016436087418">
        <ele>93.83708109445985</ele>
        <time>2025-11-27T12:58:17.596Z</time>
      </trkpt>
    </trkseg>
  </trk>
</gpx>
